<?xml version="1.0" encoding="UTF-8" standalone="no" ?>
<gpx xmlns="http://www.topografix.com/GPX/1/1" xmlns:xsi="http://www.w3.org/2001/XMLSchema-instance" xsi:schemaLocation="http://www.topografix.com/GPX/1/1 http://www.topografix.com/GPX/1/1/gpx.xsd" version="1.1" creator="VisuGPX - https://www.visugpx.com">
  <metadata>
    <name>Juvignac_Murviel_Grabels</name>
  </metadata>
  <trk>
    <name><![CDATA[Juvignac_Murviel_Grabels_1]]></name>
    <extensions>
      <line xmlns="http://www.topografix.com/GPX/gpx_style/0/2">
        <color>0000FF</color>
        <width>4</width>
      </line>
    </extensions>
    <trkseg>
      <trkpt lat="43.61559" lon="3.81999">
        <ele>39.4</ele>
        <time>2021-09-26T11:02:32Z</time>
      </trkpt>
      <trkpt lat="43.61592" lon="3.81955">
        <ele>39.5</ele>
        <time>2021-09-26T11:02:42Z</time>
      </trkpt>
      <trkpt lat="43.61583" lon="3.8192">
        <ele>39</ele>
        <time>2021-09-26T11:02:52Z</time>
      </trkpt>
      <trkpt lat="43.61573" lon="3.81877">
        <ele>38.6</ele>
        <time>2021-09-26T11:03:02Z</time>
      </trkpt>
      <trkpt lat="43.61559" lon="3.81821">
        <ele>38.3</ele>
        <time>2021-09-26T11:03:12Z</time>
      </trkpt>
      <trkpt lat="43.61543" lon="3.81762">
        <ele>36.5</ele>
        <time>2021-09-26T11:03:22Z</time>
      </trkpt>
      <trkpt lat="43.61528" lon="3.81707">
        <ele>37.4</ele>
        <time>2021-09-26T11:03:32Z</time>
      </trkpt>
      <trkpt lat="43.61511" lon="3.81648">
        <ele>39.3</ele>
        <time>2021-09-26T11:03:42Z</time>
      </trkpt>
      <trkpt lat="43.61496" lon="3.81584">
        <ele>43.8</ele>
        <time>2021-09-26T11:03:52Z</time>
      </trkpt>
      <trkpt lat="43.61489" lon="3.81534">
        <ele>46.7</ele>
        <time>2021-09-26T11:04:02Z</time>
      </trkpt>
      <trkpt lat="43.61475" lon="3.8152">
        <ele>46.4</ele>
        <time>2021-09-26T11:04:12Z</time>
      </trkpt>
      <trkpt lat="43.61461" lon="3.8149">
        <ele>46.4</ele>
        <time>2021-09-26T11:04:22Z</time>
      </trkpt>
      <trkpt lat="43.61446" lon="3.81447">
        <ele>45.6</ele>
        <time>2021-09-26T11:04:32Z</time>
      </trkpt>
      <trkpt lat="43.61432" lon="3.81403">
        <ele>45.4</ele>
        <time>2021-09-26T11:04:42Z</time>
      </trkpt>
      <trkpt lat="43.61422" lon="3.81354">
        <ele>45.8</ele>
        <time>2021-09-26T11:04:52Z</time>
      </trkpt>
      <trkpt lat="43.61412" lon="3.81304">
        <ele>46.6</ele>
        <time>2021-09-26T11:05:02Z</time>
      </trkpt>
      <trkpt lat="43.61407" lon="3.81252">
        <ele>47.5</ele>
        <time>2021-09-26T11:05:12Z</time>
      </trkpt>
      <trkpt lat="43.61405" lon="3.812">
        <ele>49.8</ele>
        <time>2021-09-26T11:05:22Z</time>
      </trkpt>
      <trkpt lat="43.61405" lon="3.81148">
        <ele>51.7</ele>
        <time>2021-09-26T11:05:32Z</time>
      </trkpt>
      <trkpt lat="43.61405" lon="3.81098">
        <ele>52.9</ele>
        <time>2021-09-26T11:05:42Z</time>
      </trkpt>
      <trkpt lat="43.61417" lon="3.81062">
        <ele>54.3</ele>
        <time>2021-09-26T11:05:52Z</time>
      </trkpt>
      <trkpt lat="43.61398" lon="3.81019">
        <ele>54</ele>
        <time>2021-09-26T11:06:02Z</time>
      </trkpt>
      <trkpt lat="43.61391" lon="3.80971">
        <ele>54.7</ele>
        <time>2021-09-26T11:06:12Z</time>
      </trkpt>
      <trkpt lat="43.61385" lon="3.80918">
        <ele>55.5</ele>
        <time>2021-09-26T11:06:22Z</time>
      </trkpt>
      <trkpt lat="43.61383" lon="3.80865">
        <ele>56.4</ele>
        <time>2021-09-26T11:06:32Z</time>
      </trkpt>
      <trkpt lat="43.6138" lon="3.80807">
        <ele>56.2</ele>
        <time>2021-09-26T11:06:42Z</time>
      </trkpt>
      <trkpt lat="43.61382" lon="3.80745">
        <ele>54.9</ele>
        <time>2021-09-26T11:06:52Z</time>
      </trkpt>
      <trkpt lat="43.61389" lon="3.80686">
        <ele>55.1</ele>
        <time>2021-09-26T11:07:02Z</time>
      </trkpt>
      <trkpt lat="43.61395" lon="3.80628">
        <ele>56.3</ele>
        <time>2021-09-26T11:07:12Z</time>
      </trkpt>
      <trkpt lat="43.61396" lon="3.80572">
        <ele>57.8</ele>
        <time>2021-09-26T11:07:22Z</time>
      </trkpt>
      <trkpt lat="43.61398" lon="3.8052">
        <ele>59.1</ele>
        <time>2021-09-26T11:07:32Z</time>
      </trkpt>
      <trkpt lat="43.61402" lon="3.80465">
        <ele>60.3</ele>
        <time>2021-09-26T11:07:42Z</time>
      </trkpt>
      <trkpt lat="43.61405" lon="3.80412">
        <ele>61.2</ele>
        <time>2021-09-26T11:07:52Z</time>
      </trkpt>
      <trkpt lat="43.61409" lon="3.80356">
        <ele>62.5</ele>
        <time>2021-09-26T11:08:02Z</time>
      </trkpt>
      <trkpt lat="43.61414" lon="3.80299">
        <ele>63.4</ele>
        <time>2021-09-26T11:08:12Z</time>
      </trkpt>
      <trkpt lat="43.6142" lon="3.80244">
        <ele>64.1</ele>
        <time>2021-09-26T11:08:22Z</time>
      </trkpt>
      <trkpt lat="43.6143" lon="3.80189">
        <ele>64.3</ele>
        <time>2021-09-26T11:08:32Z</time>
      </trkpt>
      <trkpt lat="43.61441" lon="3.80136">
        <ele>64.8</ele>
        <time>2021-09-26T11:08:42Z</time>
      </trkpt>
      <trkpt lat="43.61453" lon="3.80084">
        <ele>65.7</ele>
        <time>2021-09-26T11:08:52Z</time>
      </trkpt>
      <trkpt lat="43.61469" lon="3.80051">
        <ele>66</ele>
        <time>2021-09-26T11:09:02Z</time>
      </trkpt>
      <trkpt lat="43.6144" lon="3.80026">
        <ele>63.9</ele>
        <time>2021-09-26T11:09:12Z</time>
      </trkpt>
      <trkpt lat="43.61412" lon="3.79942">
        <ele>62.7</ele>
        <time>2021-09-26T11:09:22Z</time>
      </trkpt>
      <trkpt lat="43.61382" lon="3.7988">
        <ele>63.6</ele>
        <time>2021-09-26T11:09:32Z</time>
      </trkpt>
      <trkpt lat="43.61396" lon="3.79821">
        <ele>63</ele>
        <time>2021-09-26T11:09:42Z</time>
      </trkpt>
      <trkpt lat="43.61413" lon="3.79748">
        <ele>59.9</ele>
        <time>2021-09-26T11:09:52Z</time>
      </trkpt>
      <trkpt lat="43.61434" lon="3.79676">
        <ele>56.6</ele>
        <time>2021-09-26T11:10:02Z</time>
      </trkpt>
      <trkpt lat="43.61451" lon="3.79597">
        <ele>53.1</ele>
        <time>2021-09-26T11:10:12Z</time>
      </trkpt>
      <trkpt lat="43.61455" lon="3.79512">
        <ele>52.5</ele>
        <time>2021-09-26T11:10:22Z</time>
      </trkpt>
      <trkpt lat="43.61463" lon="3.79436">
        <ele>54</ele>
        <time>2021-09-26T11:10:32Z</time>
      </trkpt>
      <trkpt lat="43.61481" lon="3.79362">
        <ele>55</ele>
        <time>2021-09-26T11:10:42Z</time>
      </trkpt>
      <trkpt lat="43.61502" lon="3.79293">
        <ele>55.5</ele>
        <time>2021-09-26T11:10:52Z</time>
      </trkpt>
      <trkpt lat="43.61521" lon="3.79226">
        <ele>57.9</ele>
        <time>2021-09-26T11:11:02Z</time>
      </trkpt>
      <trkpt lat="43.61538" lon="3.79165">
        <ele>60.7</ele>
        <time>2021-09-26T11:11:12Z</time>
      </trkpt>
      <trkpt lat="43.61549" lon="3.79119">
        <ele>62.3</ele>
        <time>2021-09-26T11:11:22Z</time>
      </trkpt>
      <trkpt lat="43.61557" lon="3.79074">
        <ele>63.4</ele>
        <time>2021-09-26T11:11:32Z</time>
      </trkpt>
      <trkpt lat="43.61565" lon="3.79036">
        <ele>63.7</ele>
        <time>2021-09-26T11:11:42Z</time>
      </trkpt>
      <trkpt lat="43.61566" lon="3.78993">
        <ele>64.6</ele>
        <time>2021-09-26T11:11:52Z</time>
      </trkpt>
      <trkpt lat="43.61564" lon="3.7895">
        <ele>65.7</ele>
        <time>2021-09-26T11:12:02Z</time>
      </trkpt>
      <trkpt lat="43.61559" lon="3.78915">
        <ele>66.6</ele>
        <time>2021-09-26T11:12:12Z</time>
      </trkpt>
      <trkpt lat="43.61549" lon="3.7888">
        <ele>67.1</ele>
        <time>2021-09-26T11:12:22Z</time>
      </trkpt>
      <trkpt lat="43.61548" lon="3.78838">
        <ele>67.4</ele>
        <time>2021-09-26T11:12:32Z</time>
      </trkpt>
      <trkpt lat="43.61555" lon="3.78797">
        <ele>68.7</ele>
        <time>2021-09-26T11:12:42Z</time>
      </trkpt>
      <trkpt lat="43.61574" lon="3.7876">
        <ele>68</ele>
        <time>2021-09-26T11:12:52Z</time>
      </trkpt>
      <trkpt lat="43.61588" lon="3.78733">
        <ele>68.3</ele>
        <time>2021-09-26T11:13:02Z</time>
      </trkpt>
      <trkpt lat="43.61601" lon="3.78713">
        <ele>69.4</ele>
        <time>2021-09-26T11:13:22Z</time>
      </trkpt>
      <trkpt lat="43.61615" lon="3.78692">
        <ele>69.8</ele>
        <time>2021-09-26T11:13:42Z</time>
      </trkpt>
      <trkpt lat="43.61629" lon="3.78668">
        <ele>69.6</ele>
        <time>2021-09-26T11:13:52Z</time>
      </trkpt>
      <trkpt lat="43.61646" lon="3.78649">
        <ele>69.7</ele>
        <time>2021-09-26T11:14:02Z</time>
      </trkpt>
      <trkpt lat="43.61662" lon="3.78626">
        <ele>70.4</ele>
        <time>2021-09-26T11:14:12Z</time>
      </trkpt>
      <trkpt lat="43.61675" lon="3.78606">
        <ele>71.6</ele>
        <time>2021-09-26T11:14:22Z</time>
      </trkpt>
      <trkpt lat="43.61686" lon="3.78582">
        <ele>73.4</ele>
        <time>2021-09-26T11:14:32Z</time>
      </trkpt>
      <trkpt lat="43.61699" lon="3.78557">
        <ele>75.1</ele>
        <time>2021-09-26T11:14:42Z</time>
      </trkpt>
      <trkpt lat="43.61709" lon="3.78536">
        <ele>76.4</ele>
        <time>2021-09-26T11:14:52Z</time>
      </trkpt>
      <trkpt lat="43.61717" lon="3.78512">
        <ele>78</ele>
        <time>2021-09-26T11:15:02Z</time>
      </trkpt>
      <trkpt lat="43.61726" lon="3.78483">
        <ele>78.1</ele>
        <time>2021-09-26T11:15:12Z</time>
      </trkpt>
      <trkpt lat="43.61729" lon="3.78447">
        <ele>77.3</ele>
        <time>2021-09-26T11:15:22Z</time>
      </trkpt>
      <trkpt lat="43.61726" lon="3.78402">
        <ele>77.1</ele>
        <time>2021-09-26T11:15:32Z</time>
      </trkpt>
      <trkpt lat="43.61717" lon="3.78341">
        <ele>78.3</ele>
        <time>2021-09-26T11:15:42Z</time>
      </trkpt>
      <trkpt lat="43.61722" lon="3.78286">
        <ele>79.9</ele>
        <time>2021-09-26T11:15:52Z</time>
      </trkpt>
      <trkpt lat="43.61733" lon="3.78238">
        <ele>81.4</ele>
        <time>2021-09-26T11:16:02Z</time>
      </trkpt>
      <trkpt lat="43.61745" lon="3.78186">
        <ele>83.3</ele>
        <time>2021-09-26T11:16:12Z</time>
      </trkpt>
      <trkpt lat="43.61757" lon="3.78135">
        <ele>85.1</ele>
        <time>2021-09-26T11:16:22Z</time>
      </trkpt>
      <trkpt lat="43.61778" lon="3.78089">
        <ele>85.7</ele>
        <time>2021-09-26T11:16:32Z</time>
      </trkpt>
      <trkpt lat="43.6181" lon="3.78052">
        <ele>84.4</ele>
        <time>2021-09-26T11:16:42Z</time>
      </trkpt>
      <trkpt lat="43.61832" lon="3.78">
        <ele>84.1</ele>
        <time>2021-09-26T11:16:52Z</time>
      </trkpt>
      <trkpt lat="43.61839" lon="3.77947">
        <ele>85.6</ele>
        <time>2021-09-26T11:17:02Z</time>
      </trkpt>
      <trkpt lat="43.61839" lon="3.77898">
        <ele>87.1</ele>
        <time>2021-09-26T11:17:12Z</time>
      </trkpt>
      <trkpt lat="43.61826" lon="3.77866">
        <ele>88.7</ele>
        <time>2021-09-26T11:17:22Z</time>
      </trkpt>
      <trkpt lat="43.618" lon="3.77866">
        <ele>90.6</ele>
        <time>2021-09-26T11:17:32Z</time>
      </trkpt>
      <trkpt lat="43.61793" lon="3.77837">
        <ele>91.8</ele>
        <time>2021-09-26T11:17:42Z</time>
      </trkpt>
      <trkpt lat="43.61802" lon="3.778">
        <ele>92.8</ele>
        <time>2021-09-26T11:17:52Z</time>
      </trkpt>
      <trkpt lat="43.61811" lon="3.77761">
        <ele>94.3</ele>
        <time>2021-09-26T11:18:02Z</time>
      </trkpt>
      <trkpt lat="43.61821" lon="3.77722">
        <ele>95.5</ele>
        <time>2021-09-26T11:18:12Z</time>
      </trkpt>
      <trkpt lat="43.61831" lon="3.77683">
        <ele>96.5</ele>
        <time>2021-09-26T11:18:22Z</time>
      </trkpt>
      <trkpt lat="43.61843" lon="3.77649">
        <ele>97</ele>
        <time>2021-09-26T11:18:32Z</time>
      </trkpt>
      <trkpt lat="43.61853" lon="3.77612">
        <ele>98</ele>
        <time>2021-09-26T11:18:42Z</time>
      </trkpt>
      <trkpt lat="43.61864" lon="3.77574">
        <ele>98.7</ele>
        <time>2021-09-26T11:18:52Z</time>
      </trkpt>
      <trkpt lat="43.61875" lon="3.77534">
        <ele>99.3</ele>
        <time>2021-09-26T11:19:02Z</time>
      </trkpt>
      <trkpt lat="43.61886" lon="3.77495">
        <ele>100.2</ele>
        <time>2021-09-26T11:19:12Z</time>
      </trkpt>
      <trkpt lat="43.61898" lon="3.77456">
        <ele>100.4</ele>
        <time>2021-09-26T11:19:22Z</time>
      </trkpt>
      <trkpt lat="43.61906" lon="3.77429">
        <ele>100.5</ele>
        <time>2021-09-26T11:19:32Z</time>
      </trkpt>
      <trkpt lat="43.61922" lon="3.77391">
        <ele>101.6</ele>
        <time>2021-09-26T11:19:42Z</time>
      </trkpt>
      <trkpt lat="43.61939" lon="3.77349">
        <ele>103.1</ele>
        <time>2021-09-26T11:19:52Z</time>
      </trkpt>
      <trkpt lat="43.61958" lon="3.773">
        <ele>105.2</ele>
        <time>2021-09-26T11:20:02Z</time>
      </trkpt>
      <trkpt lat="43.61979" lon="3.77252">
        <ele>106.4</ele>
        <time>2021-09-26T11:20:12Z</time>
      </trkpt>
      <trkpt lat="43.61996" lon="3.77205">
        <ele>105.8</ele>
        <time>2021-09-26T11:20:22Z</time>
      </trkpt>
      <trkpt lat="43.62016" lon="3.7716">
        <ele>105.3</ele>
        <time>2021-09-26T11:20:32Z</time>
      </trkpt>
      <trkpt lat="43.62035" lon="3.77113">
        <ele>104.5</ele>
        <time>2021-09-26T11:20:42Z</time>
      </trkpt>
      <trkpt lat="43.62054" lon="3.77067">
        <ele>105.9</ele>
        <time>2021-09-26T11:20:52Z</time>
      </trkpt>
      <trkpt lat="43.62074" lon="3.77021">
        <ele>108.8</ele>
        <time>2021-09-26T11:21:02Z</time>
      </trkpt>
      <trkpt lat="43.62091" lon="3.76977">
        <ele>110.9</ele>
        <time>2021-09-26T11:21:12Z</time>
      </trkpt>
      <trkpt lat="43.62109" lon="3.76932">
        <ele>112</ele>
        <time>2021-09-26T11:21:22Z</time>
      </trkpt>
      <trkpt lat="43.62125" lon="3.76889">
        <ele>113</ele>
        <time>2021-09-26T11:21:32Z</time>
      </trkpt>
      <trkpt lat="43.6214" lon="3.76846">
        <ele>113.9</ele>
        <time>2021-09-26T11:21:42Z</time>
      </trkpt>
      <trkpt lat="43.62155" lon="3.768">
        <ele>115.5</ele>
        <time>2021-09-26T11:21:52Z</time>
      </trkpt>
      <trkpt lat="43.62168" lon="3.76746">
        <ele>118.1</ele>
        <time>2021-09-26T11:22:02Z</time>
      </trkpt>
      <trkpt lat="43.62182" lon="3.76697">
        <ele>119.4</ele>
        <time>2021-09-26T11:22:12Z</time>
      </trkpt>
      <trkpt lat="43.62196" lon="3.76644">
        <ele>120.6</ele>
        <time>2021-09-26T11:22:22Z</time>
      </trkpt>
      <trkpt lat="43.62211" lon="3.76592">
        <ele>121.6</ele>
        <time>2021-09-26T11:22:32Z</time>
      </trkpt>
      <trkpt lat="43.62226" lon="3.76544">
        <ele>121.3</ele>
        <time>2021-09-26T11:22:42Z</time>
      </trkpt>
      <trkpt lat="43.62238" lon="3.76494">
        <ele>121.3</ele>
        <time>2021-09-26T11:22:52Z</time>
      </trkpt>
      <trkpt lat="43.62249" lon="3.76441">
        <ele>122</ele>
        <time>2021-09-26T11:23:02Z</time>
      </trkpt>
      <trkpt lat="43.62259" lon="3.76391">
        <ele>123</ele>
        <time>2021-09-26T11:23:12Z</time>
      </trkpt>
      <trkpt lat="43.62265" lon="3.76331">
        <ele>124.7</ele>
        <time>2021-09-26T11:23:22Z</time>
      </trkpt>
      <trkpt lat="43.62272" lon="3.76276">
        <ele>125.7</ele>
        <time>2021-09-26T11:23:32Z</time>
      </trkpt>
      <trkpt lat="43.62273" lon="3.76226">
        <ele>125.9</ele>
        <time>2021-09-26T11:23:42Z</time>
      </trkpt>
      <trkpt lat="43.62276" lon="3.76188">
        <ele>125.5</ele>
        <time>2021-09-26T11:23:52Z</time>
      </trkpt>
      <trkpt lat="43.62285" lon="3.76196">
        <ele>126.1</ele>
        <time>2021-09-26T11:24:02Z</time>
      </trkpt>
      <trkpt lat="43.62292" lon="3.7617">
        <ele>126.5</ele>
        <time>2021-09-26T11:24:12Z</time>
      </trkpt>
      <trkpt lat="43.62299" lon="3.76149">
        <ele>127.1</ele>
        <time>2021-09-26T11:24:22Z</time>
      </trkpt>
      <trkpt lat="43.62307" lon="3.76127">
        <ele>128</ele>
        <time>2021-09-26T11:24:32Z</time>
      </trkpt>
      <trkpt lat="43.62315" lon="3.76102">
        <ele>129.2</ele>
        <time>2021-09-26T11:24:42Z</time>
      </trkpt>
      <trkpt lat="43.62321" lon="3.76082">
        <ele>130.2</ele>
        <time>2021-09-26T11:24:52Z</time>
      </trkpt>
      <trkpt lat="43.62326" lon="3.76061">
        <ele>131.1</ele>
        <time>2021-09-26T11:25:02Z</time>
      </trkpt>
      <trkpt lat="43.62331" lon="3.76039">
        <ele>132.1</ele>
        <time>2021-09-26T11:25:12Z</time>
      </trkpt>
      <trkpt lat="43.62334" lon="3.76015">
        <ele>132.9</ele>
        <time>2021-09-26T11:25:22Z</time>
      </trkpt>
      <trkpt lat="43.62339" lon="3.75991">
        <ele>134</ele>
        <time>2021-09-26T11:25:32Z</time>
      </trkpt>
      <trkpt lat="43.62344" lon="3.75972">
        <ele>135.2</ele>
        <time>2021-09-26T11:25:42Z</time>
      </trkpt>
      <trkpt lat="43.62352" lon="3.75956">
        <ele>136.8</ele>
        <time>2021-09-26T11:25:52Z</time>
      </trkpt>
      <trkpt lat="43.62361" lon="3.75942">
        <ele>138.5</ele>
        <time>2021-09-26T11:26:02Z</time>
      </trkpt>
      <trkpt lat="43.62368" lon="3.75926">
        <ele>140.1</ele>
        <time>2021-09-26T11:26:12Z</time>
      </trkpt>
      <trkpt lat="43.62372" lon="3.75905">
        <ele>141.7</ele>
        <time>2021-09-26T11:26:22Z</time>
      </trkpt>
      <trkpt lat="43.62367" lon="3.75881">
        <ele>142.4</ele>
        <time>2021-09-26T11:26:32Z</time>
      </trkpt>
      <trkpt lat="43.62371" lon="3.75857">
        <ele>144.2</ele>
        <time>2021-09-26T11:26:42Z</time>
      </trkpt>
      <trkpt lat="43.6238" lon="3.75837">
        <ele>146.4</ele>
        <time>2021-09-26T11:26:52Z</time>
      </trkpt>
      <trkpt lat="43.62384" lon="3.75816">
        <ele>147.7</ele>
        <time>2021-09-26T11:27:02Z</time>
      </trkpt>
      <trkpt lat="43.62383" lon="3.75792">
        <ele>148.5</ele>
        <time>2021-09-26T11:27:12Z</time>
      </trkpt>
      <trkpt lat="43.62381" lon="3.75768">
        <ele>149.2</ele>
        <time>2021-09-26T11:27:22Z</time>
      </trkpt>
      <trkpt lat="43.62379" lon="3.75741">
        <ele>149.9</ele>
        <time>2021-09-26T11:27:32Z</time>
      </trkpt>
      <trkpt lat="43.62379" lon="3.75714">
        <ele>150.9</ele>
        <time>2021-09-26T11:27:42Z</time>
      </trkpt>
      <trkpt lat="43.62383" lon="3.7569">
        <ele>152.3</ele>
        <time>2021-09-26T11:27:52Z</time>
      </trkpt>
      <trkpt lat="43.62391" lon="3.7567">
        <ele>154.2</ele>
        <time>2021-09-26T11:28:02Z</time>
      </trkpt>
      <trkpt lat="43.62397" lon="3.75648">
        <ele>155.9</ele>
        <time>2021-09-26T11:28:12Z</time>
      </trkpt>
      <trkpt lat="43.62404" lon="3.75627">
        <ele>157.7</ele>
        <time>2021-09-26T11:28:22Z</time>
      </trkpt>
      <trkpt lat="43.62411" lon="3.75607">
        <ele>159.4</ele>
        <time>2021-09-26T11:28:32Z</time>
      </trkpt>
      <trkpt lat="43.62421" lon="3.75591">
        <ele>160.8</ele>
        <time>2021-09-26T11:28:42Z</time>
      </trkpt>
      <trkpt lat="43.62435" lon="3.75579">
        <ele>161.7</ele>
        <time>2021-09-26T11:28:52Z</time>
      </trkpt>
      <trkpt lat="43.62445" lon="3.75564">
        <ele>162.9</ele>
        <time>2021-09-26T11:29:02Z</time>
      </trkpt>
      <trkpt lat="43.62458" lon="3.75559">
        <ele>163.5</ele>
        <time>2021-09-26T11:29:12Z</time>
      </trkpt>
      <trkpt lat="43.62478" lon="3.75572">
        <ele>163.1</ele>
        <time>2021-09-26T11:29:22Z</time>
      </trkpt>
      <trkpt lat="43.62506" lon="3.75585">
        <ele>162.7</ele>
        <time>2021-09-26T11:29:32Z</time>
      </trkpt>
      <trkpt lat="43.62513" lon="3.75552">
        <ele>163.8</ele>
        <time>2021-09-26T11:29:42Z</time>
      </trkpt>
      <trkpt lat="43.6252" lon="3.75521">
        <ele>164.6</ele>
        <time>2021-09-26T11:29:52Z</time>
      </trkpt>
      <trkpt lat="43.62529" lon="3.75491">
        <ele>165.1</ele>
        <time>2021-09-26T11:30:02Z</time>
      </trkpt>
      <trkpt lat="43.62536" lon="3.75462">
        <ele>166.3</ele>
        <time>2021-09-26T11:30:12Z</time>
      </trkpt>
      <trkpt lat="43.6254" lon="3.75435">
        <ele>167.5</ele>
        <time>2021-09-26T11:30:22Z</time>
      </trkpt>
      <trkpt lat="43.62544" lon="3.75409">
        <ele>168.8</ele>
        <time>2021-09-26T11:30:32Z</time>
      </trkpt>
      <trkpt lat="43.62547" lon="3.75385">
        <ele>170.3</ele>
        <time>2021-09-26T11:30:42Z</time>
      </trkpt>
      <trkpt lat="43.62548" lon="3.75361">
        <ele>171.9</ele>
        <time>2021-09-26T11:30:52Z</time>
      </trkpt>
      <trkpt lat="43.62544" lon="3.75338">
        <ele>173.6</ele>
        <time>2021-09-26T11:31:02Z</time>
      </trkpt>
      <trkpt lat="43.6254" lon="3.75313">
        <ele>174.9</ele>
        <time>2021-09-26T11:31:12Z</time>
      </trkpt>
      <trkpt lat="43.62536" lon="3.75286">
        <ele>176</ele>
        <time>2021-09-26T11:31:22Z</time>
      </trkpt>
      <trkpt lat="43.62536" lon="3.75256">
        <ele>177.2</ele>
        <time>2021-09-26T11:31:32Z</time>
      </trkpt>
      <trkpt lat="43.62535" lon="3.75221">
        <ele>177</ele>
        <time>2021-09-26T11:31:42Z</time>
      </trkpt>
      <trkpt lat="43.62533" lon="3.75189">
        <ele>176.5</ele>
        <time>2021-09-26T11:31:52Z</time>
      </trkpt>
      <trkpt lat="43.62533" lon="3.75175">
        <ele>176.3</ele>
        <time>2021-09-26T11:33:42Z</time>
      </trkpt>
      <trkpt lat="43.62538" lon="3.75146">
        <ele>175.1</ele>
        <time>2021-09-26T11:34:02Z</time>
      </trkpt>
      <trkpt lat="43.62532" lon="3.75111">
        <ele>173.4</ele>
        <time>2021-09-26T11:34:12Z</time>
      </trkpt>
      <trkpt lat="43.62515" lon="3.75078">
        <ele>171.7</ele>
        <time>2021-09-26T11:34:22Z</time>
      </trkpt>
      <trkpt lat="43.625" lon="3.75046">
        <ele>169.8</ele>
        <time>2021-09-26T11:34:32Z</time>
      </trkpt>
      <trkpt lat="43.62473" lon="3.75047">
        <ele>167.9</ele>
        <time>2021-09-26T11:34:42Z</time>
      </trkpt>
      <trkpt lat="43.6245" lon="3.75058">
        <ele>167.1</ele>
        <time>2021-09-26T11:34:52Z</time>
      </trkpt>
      <trkpt lat="43.62426" lon="3.75074">
        <ele>166.8</ele>
        <time>2021-09-26T11:35:02Z</time>
      </trkpt>
      <trkpt lat="43.62401" lon="3.75069">
        <ele>164</ele>
        <time>2021-09-26T11:35:12Z</time>
      </trkpt>
      <trkpt lat="43.62378" lon="3.75073">
        <ele>161.6</ele>
        <time>2021-09-26T11:35:22Z</time>
      </trkpt>
      <trkpt lat="43.62357" lon="3.75086">
        <ele>159.9</ele>
        <time>2021-09-26T11:35:32Z</time>
      </trkpt>
      <trkpt lat="43.62336" lon="3.75099">
        <ele>157.3</ele>
        <time>2021-09-26T11:35:42Z</time>
      </trkpt>
      <trkpt lat="43.62319" lon="3.75098">
        <ele>154.4</ele>
        <time>2021-09-26T11:35:52Z</time>
      </trkpt>
      <trkpt lat="43.62297" lon="3.75094">
        <ele>150.5</ele>
        <time>2021-09-26T11:36:02Z</time>
      </trkpt>
      <trkpt lat="43.62275" lon="3.75098">
        <ele>146.5</ele>
        <time>2021-09-26T11:36:12Z</time>
      </trkpt>
      <trkpt lat="43.62256" lon="3.75112">
        <ele>143.1</ele>
        <time>2021-09-26T11:36:22Z</time>
      </trkpt>
      <trkpt lat="43.62234" lon="3.75098">
        <ele>139.9</ele>
        <time>2021-09-26T11:36:32Z</time>
      </trkpt>
      <trkpt lat="43.62211" lon="3.75081">
        <ele>136.7</ele>
        <time>2021-09-26T11:36:42Z</time>
      </trkpt>
      <trkpt lat="43.62179" lon="3.75057">
        <ele>131.1</ele>
        <time>2021-09-26T11:36:52Z</time>
      </trkpt>
      <trkpt lat="43.62159" lon="3.75013">
        <ele>125.4</ele>
        <time>2021-09-26T11:37:02Z</time>
      </trkpt>
      <trkpt lat="43.62145" lon="3.74951">
        <ele>117.7</ele>
        <time>2021-09-26T11:37:12Z</time>
      </trkpt>
      <trkpt lat="43.62127" lon="3.74885">
        <ele>110.1</ele>
        <time>2021-09-26T11:37:22Z</time>
      </trkpt>
      <trkpt lat="43.62109" lon="3.74831">
        <ele>105.5</ele>
        <time>2021-09-26T11:37:32Z</time>
      </trkpt>
      <trkpt lat="43.6208" lon="3.74838">
        <ele>103.3</ele>
        <time>2021-09-26T11:37:42Z</time>
      </trkpt>
      <trkpt lat="43.62059" lon="3.74875">
        <ele>105.2</ele>
        <time>2021-09-26T11:37:52Z</time>
      </trkpt>
      <trkpt lat="43.62051" lon="3.74926">
        <ele>106.4</ele>
        <time>2021-09-26T11:38:02Z</time>
      </trkpt>
      <trkpt lat="43.62033" lon="3.74962">
        <ele>107.1</ele>
        <time>2021-09-26T11:38:12Z</time>
      </trkpt>
      <trkpt lat="43.62014" lon="3.75004">
        <ele>106.2</ele>
        <time>2021-09-26T11:38:22Z</time>
      </trkpt>
      <trkpt lat="43.61983" lon="3.7503">
        <ele>106.2</ele>
        <time>2021-09-26T11:38:32Z</time>
      </trkpt>
      <trkpt lat="43.61946" lon="3.75053">
        <ele>105.8</ele>
        <time>2021-09-26T11:38:42Z</time>
      </trkpt>
      <trkpt lat="43.61911" lon="3.75073">
        <ele>103.6</ele>
        <time>2021-09-26T11:38:52Z</time>
      </trkpt>
      <trkpt lat="43.61871" lon="3.75083">
        <ele>101.9</ele>
        <time>2021-09-26T11:39:02Z</time>
      </trkpt>
      <trkpt lat="43.61833" lon="3.75099">
        <ele>102.5</ele>
        <time>2021-09-26T11:39:12Z</time>
      </trkpt>
      <trkpt lat="43.61799" lon="3.75117">
        <ele>105</ele>
        <time>2021-09-26T11:39:22Z</time>
      </trkpt>
      <trkpt lat="43.618" lon="3.75084">
        <ele>103.8</ele>
        <time>2021-09-26T11:39:32Z</time>
      </trkpt>
      <trkpt lat="43.61803" lon="3.75052">
        <ele>105.6</ele>
        <time>2021-09-26T11:39:42Z</time>
      </trkpt>
      <trkpt lat="43.61807" lon="3.7502">
        <ele>107.3</ele>
        <time>2021-09-26T11:39:52Z</time>
      </trkpt>
      <trkpt lat="43.61798" lon="3.7498">
        <ele>109.8</ele>
        <time>2021-09-26T11:40:02Z</time>
      </trkpt>
      <trkpt lat="43.61785" lon="3.74952">
        <ele>110.8</ele>
        <time>2021-09-26T11:40:12Z</time>
      </trkpt>
      <trkpt lat="43.61768" lon="3.74926">
        <ele>110.6</ele>
        <time>2021-09-26T11:40:22Z</time>
      </trkpt>
      <trkpt lat="43.61749" lon="3.74908">
        <ele>110.2</ele>
        <time>2021-09-26T11:40:32Z</time>
      </trkpt>
      <trkpt lat="43.61728" lon="3.74899">
        <ele>113</ele>
        <time>2021-09-26T11:40:42Z</time>
      </trkpt>
      <trkpt lat="43.61709" lon="3.74876">
        <ele>115</ele>
        <time>2021-09-26T11:40:52Z</time>
      </trkpt>
      <trkpt lat="43.61699" lon="3.74841">
        <ele>114.9</ele>
        <time>2021-09-26T11:41:02Z</time>
      </trkpt>
      <trkpt lat="43.6169" lon="3.74799">
        <ele>114.5</ele>
        <time>2021-09-26T11:41:12Z</time>
      </trkpt>
      <trkpt lat="43.61676" lon="3.74762">
        <ele>113.6</ele>
        <time>2021-09-26T11:41:22Z</time>
      </trkpt>
      <trkpt lat="43.61662" lon="3.74727">
        <ele>112.4</ele>
        <time>2021-09-26T11:41:32Z</time>
      </trkpt>
      <trkpt lat="43.61651" lon="3.74694">
        <ele>112.3</ele>
        <time>2021-09-26T11:41:42Z</time>
      </trkpt>
      <trkpt lat="43.61636" lon="3.74667">
        <ele>113.2</ele>
        <time>2021-09-26T11:41:52Z</time>
      </trkpt>
      <trkpt lat="43.6162" lon="3.74639">
        <ele>115.4</ele>
        <time>2021-09-26T11:42:02Z</time>
      </trkpt>
      <trkpt lat="43.61604" lon="3.74605">
        <ele>115.7</ele>
        <time>2021-09-26T11:42:12Z</time>
      </trkpt>
      <trkpt lat="43.61592" lon="3.74575">
        <ele>114.6</ele>
        <time>2021-09-26T11:42:22Z</time>
      </trkpt>
      <trkpt lat="43.61607" lon="3.74556">
        <ele>114.3</ele>
        <time>2021-09-26T11:42:32Z</time>
      </trkpt>
      <trkpt lat="43.61638" lon="3.74553">
        <ele>115.3</ele>
        <time>2021-09-26T11:42:42Z</time>
      </trkpt>
      <trkpt lat="43.61657" lon="3.74559">
        <ele>115.5</ele>
        <time>2021-09-26T11:42:52Z</time>
      </trkpt>
      <trkpt lat="43.6167" lon="3.74572">
        <ele>115.3</ele>
        <time>2021-09-26T11:43:02Z</time>
      </trkpt>
      <trkpt lat="43.61684" lon="3.74587">
        <ele>115.8</ele>
        <time>2021-09-26T11:43:12Z</time>
      </trkpt>
      <trkpt lat="43.61699" lon="3.74601">
        <ele>116.4</ele>
        <time>2021-09-26T11:43:22Z</time>
      </trkpt>
      <trkpt lat="43.61717" lon="3.74616">
        <ele>117</ele>
        <time>2021-09-26T11:43:32Z</time>
      </trkpt>
      <trkpt lat="43.61739" lon="3.74636">
        <ele>117.2</ele>
        <time>2021-09-26T11:43:42Z</time>
      </trkpt>
      <trkpt lat="43.61764" lon="3.7464">
        <ele>118.1</ele>
        <time>2021-09-26T11:43:52Z</time>
      </trkpt>
      <trkpt lat="43.61789" lon="3.7463">
        <ele>119.3</ele>
        <time>2021-09-26T11:44:02Z</time>
      </trkpt>
      <trkpt lat="43.61811" lon="3.74625">
        <ele>119.9</ele>
        <time>2021-09-26T11:44:12Z</time>
      </trkpt>
      <trkpt lat="43.61814" lon="3.74612">
        <ele>120.7</ele>
        <time>2021-09-26T11:44:22Z</time>
      </trkpt>
      <trkpt lat="43.61807" lon="3.74602">
        <ele>121.4</ele>
        <time>2021-09-26T11:44:32Z</time>
      </trkpt>
      <trkpt lat="43.61803" lon="3.74589">
        <ele>122.3</ele>
        <time>2021-09-26T11:44:42Z</time>
      </trkpt>
      <trkpt lat="43.61796" lon="3.74575">
        <ele>124</ele>
        <time>2021-09-26T11:44:52Z</time>
      </trkpt>
      <trkpt lat="43.61793" lon="3.74562">
        <ele>125.9</ele>
        <time>2021-09-26T11:45:02Z</time>
      </trkpt>
      <trkpt lat="43.61787" lon="3.74549">
        <ele>127.9</ele>
        <time>2021-09-26T11:45:12Z</time>
      </trkpt>
      <trkpt lat="43.61779" lon="3.74539">
        <ele>129.7</ele>
        <time>2021-09-26T11:45:22Z</time>
      </trkpt>
      <trkpt lat="43.61769" lon="3.74532">
        <ele>131.1</ele>
        <time>2021-09-26T11:45:32Z</time>
      </trkpt>
      <trkpt lat="43.61752" lon="3.74532">
        <ele>131.9</ele>
        <time>2021-09-26T11:45:52Z</time>
      </trkpt>
      <trkpt lat="43.6174" lon="3.74522">
        <ele>131.7</ele>
        <time>2021-09-26T11:46:12Z</time>
      </trkpt>
      <trkpt lat="43.61739" lon="3.74501">
        <ele>134.6</ele>
        <time>2021-09-26T11:46:22Z</time>
      </trkpt>
      <trkpt lat="43.61739" lon="3.74484">
        <ele>136.2</ele>
        <time>2021-09-26T11:46:32Z</time>
      </trkpt>
      <trkpt lat="43.61739" lon="3.74468">
        <ele>137.7</ele>
        <time>2021-09-26T11:46:42Z</time>
      </trkpt>
      <trkpt lat="43.61739" lon="3.74449">
        <ele>139.4</ele>
        <time>2021-09-26T11:46:52Z</time>
      </trkpt>
      <trkpt lat="43.6174" lon="3.74428">
        <ele>141.6</ele>
        <time>2021-09-26T11:47:02Z</time>
      </trkpt>
      <trkpt lat="43.6174" lon="3.74404">
        <ele>143.4</ele>
        <time>2021-09-26T11:47:12Z</time>
      </trkpt>
      <trkpt lat="43.61743" lon="3.74382">
        <ele>145.4</ele>
        <time>2021-09-26T11:47:22Z</time>
      </trkpt>
      <trkpt lat="43.61747" lon="3.74362">
        <ele>147.6</ele>
        <time>2021-09-26T11:47:32Z</time>
      </trkpt>
      <trkpt lat="43.61751" lon="3.74342">
        <ele>149.5</ele>
        <time>2021-09-26T11:47:42Z</time>
      </trkpt>
      <trkpt lat="43.61755" lon="3.74323">
        <ele>150</ele>
        <time>2021-09-26T11:47:52Z</time>
      </trkpt>
      <trkpt lat="43.61773" lon="3.74306">
        <ele>150.1</ele>
        <time>2021-09-26T11:48:02Z</time>
      </trkpt>
      <trkpt lat="43.61785" lon="3.74287">
        <ele>150.5</ele>
        <time>2021-09-26T11:48:12Z</time>
      </trkpt>
      <trkpt lat="43.61798" lon="3.74265">
        <ele>151.3</ele>
        <time>2021-09-26T11:48:22Z</time>
      </trkpt>
      <trkpt lat="43.61814" lon="3.74236">
        <ele>151.5</ele>
        <time>2021-09-26T11:48:32Z</time>
      </trkpt>
      <trkpt lat="43.61828" lon="3.74207">
        <ele>151</ele>
        <time>2021-09-26T11:48:42Z</time>
      </trkpt>
      <trkpt lat="43.61842" lon="3.74174">
        <ele>149.8</ele>
        <time>2021-09-26T11:48:52Z</time>
      </trkpt>
      <trkpt lat="43.61868" lon="3.74153">
        <ele>148.3</ele>
        <time>2021-09-26T11:49:02Z</time>
      </trkpt>
      <trkpt lat="43.6188" lon="3.74121">
        <ele>147.9</ele>
        <time>2021-09-26T11:49:12Z</time>
      </trkpt>
      <trkpt lat="43.61874" lon="3.74096">
        <ele>148</ele>
        <time>2021-09-26T11:49:22Z</time>
      </trkpt>
      <trkpt lat="43.61852" lon="3.74085">
        <ele>148</ele>
        <time>2021-09-26T11:49:32Z</time>
      </trkpt>
      <trkpt lat="43.6183" lon="3.74054">
        <ele>150.3</ele>
        <time>2021-09-26T11:49:42Z</time>
      </trkpt>
      <trkpt lat="43.61805" lon="3.74018">
        <ele>150.6</ele>
        <time>2021-09-26T11:49:52Z</time>
      </trkpt>
      <trkpt lat="43.61775" lon="3.73986">
        <ele>150.1</ele>
        <time>2021-09-26T11:50:02Z</time>
      </trkpt>
      <trkpt lat="43.61752" lon="3.73951">
        <ele>149.8</ele>
        <time>2021-09-26T11:50:12Z</time>
      </trkpt>
      <trkpt lat="43.61758" lon="3.73899">
        <ele>153.5</ele>
        <time>2021-09-26T11:50:22Z</time>
      </trkpt>
      <trkpt lat="43.61754" lon="3.73849">
        <ele>154.2</ele>
        <time>2021-09-26T11:50:32Z</time>
      </trkpt>
      <trkpt lat="43.6174" lon="3.73807">
        <ele>153.6</ele>
        <time>2021-09-26T11:50:42Z</time>
      </trkpt>
      <trkpt lat="43.61718" lon="3.73777">
        <ele>151.4</ele>
        <time>2021-09-26T11:50:52Z</time>
      </trkpt>
      <trkpt lat="43.61705" lon="3.73745">
        <ele>149.6</ele>
        <time>2021-09-26T11:51:02Z</time>
      </trkpt>
      <trkpt lat="43.61689" lon="3.73696">
        <ele>147.6</ele>
        <time>2021-09-26T11:51:12Z</time>
      </trkpt>
      <trkpt lat="43.61647" lon="3.73684">
        <ele>141.7</ele>
        <time>2021-09-26T11:51:22Z</time>
      </trkpt>
      <trkpt lat="43.61594" lon="3.73694">
        <ele>135</ele>
        <time>2021-09-26T11:51:32Z</time>
      </trkpt>
      <trkpt lat="43.61568" lon="3.73729">
        <ele>130.1</ele>
        <time>2021-09-26T11:51:42Z</time>
      </trkpt>
      <trkpt lat="43.61557" lon="3.73766">
        <ele>128.1</ele>
        <time>2021-09-26T11:51:52Z</time>
      </trkpt>
      <trkpt lat="43.61543" lon="3.7381">
        <ele>126.3</ele>
        <time>2021-09-26T11:52:02Z</time>
      </trkpt>
      <trkpt lat="43.61524" lon="3.73833">
        <ele>122.2</ele>
        <time>2021-09-26T11:52:12Z</time>
      </trkpt>
      <trkpt lat="43.61498" lon="3.73818">
        <ele>117.7</ele>
        <time>2021-09-26T11:52:22Z</time>
      </trkpt>
      <trkpt lat="43.61481" lon="3.73802">
        <ele>118.8</ele>
        <time>2021-09-26T11:52:32Z</time>
      </trkpt>
      <trkpt lat="43.61474" lon="3.73785">
        <ele>119.9</ele>
        <time>2021-09-26T11:52:42Z</time>
      </trkpt>
      <trkpt lat="43.61471" lon="3.73765">
        <ele>121.1</ele>
        <time>2021-09-26T11:52:52Z</time>
      </trkpt>
      <trkpt lat="43.6147" lon="3.73743">
        <ele>122.5</ele>
        <time>2021-09-26T11:53:02Z</time>
      </trkpt>
      <trkpt lat="43.61467" lon="3.73717">
        <ele>124.2</ele>
        <time>2021-09-26T11:53:12Z</time>
      </trkpt>
      <trkpt lat="43.61459" lon="3.73689">
        <ele>126.5</ele>
        <time>2021-09-26T11:53:22Z</time>
      </trkpt>
      <trkpt lat="43.61448" lon="3.73671">
        <ele>128.7</ele>
        <time>2021-09-26T11:53:32Z</time>
      </trkpt>
      <trkpt lat="43.61438" lon="3.73666">
        <ele>130</ele>
        <time>2021-09-26T11:53:42Z</time>
      </trkpt>
      <trkpt lat="43.61428" lon="3.73673">
        <ele>130.4</ele>
        <time>2021-09-26T11:53:52Z</time>
      </trkpt>
      <trkpt lat="43.61416" lon="3.73679">
        <ele>130.9</ele>
        <time>2021-09-26T11:54:02Z</time>
      </trkpt>
      <trkpt lat="43.61405" lon="3.73685">
        <ele>131.7</ele>
        <time>2021-09-26T11:54:12Z</time>
      </trkpt>
      <trkpt lat="43.61383" lon="3.73697">
        <ele>133.4</ele>
        <time>2021-09-26T11:54:32Z</time>
      </trkpt>
      <trkpt lat="43.61367" lon="3.73705">
        <ele>134.6</ele>
        <time>2021-09-26T11:54:52Z</time>
      </trkpt>
      <trkpt lat="43.61353" lon="3.73704">
        <ele>136.5</ele>
        <time>2021-09-26T11:55:02Z</time>
      </trkpt>
      <trkpt lat="43.61338" lon="3.73706">
        <ele>138.2</ele>
        <time>2021-09-26T11:55:12Z</time>
      </trkpt>
      <trkpt lat="43.61324" lon="3.73708">
        <ele>139.3</ele>
        <time>2021-09-26T11:55:22Z</time>
      </trkpt>
      <trkpt lat="43.61312" lon="3.7371">
        <ele>140.1</ele>
        <time>2021-09-26T11:55:32Z</time>
      </trkpt>
      <trkpt lat="43.61299" lon="3.73714">
        <ele>140.8</ele>
        <time>2021-09-26T11:55:42Z</time>
      </trkpt>
      <trkpt lat="43.61286" lon="3.73722">
        <ele>141.2</ele>
        <time>2021-09-26T11:55:52Z</time>
      </trkpt>
      <trkpt lat="43.61273" lon="3.73721">
        <ele>142.4</ele>
        <time>2021-09-26T11:56:02Z</time>
      </trkpt>
      <trkpt lat="43.6126" lon="3.73717">
        <ele>143.9</ele>
        <time>2021-09-26T11:56:12Z</time>
      </trkpt>
      <trkpt lat="43.61248" lon="3.73714">
        <ele>145.2</ele>
        <time>2021-09-26T11:56:22Z</time>
      </trkpt>
      <trkpt lat="43.61235" lon="3.73709">
        <ele>146.5</ele>
        <time>2021-09-26T11:56:32Z</time>
      </trkpt>
      <trkpt lat="43.61221" lon="3.73703">
        <ele>147.9</ele>
        <time>2021-09-26T11:56:42Z</time>
      </trkpt>
      <trkpt lat="43.61208" lon="3.73698">
        <ele>149.1</ele>
        <time>2021-09-26T11:56:52Z</time>
      </trkpt>
      <trkpt lat="43.61195" lon="3.73694">
        <ele>150.2</ele>
        <time>2021-09-26T11:57:02Z</time>
      </trkpt>
      <trkpt lat="43.61183" lon="3.73689">
        <ele>151.2</ele>
        <time>2021-09-26T11:57:12Z</time>
      </trkpt>
      <trkpt lat="43.61173" lon="3.73676">
        <ele>152.3</ele>
        <time>2021-09-26T11:57:22Z</time>
      </trkpt>
      <trkpt lat="43.61167" lon="3.73659">
        <ele>152.8</ele>
        <time>2021-09-26T11:57:32Z</time>
      </trkpt>
      <trkpt lat="43.61154" lon="3.73647">
        <ele>152.6</ele>
        <time>2021-09-26T11:57:42Z</time>
      </trkpt>
      <trkpt lat="43.61137" lon="3.73633">
        <ele>152.5</ele>
        <time>2021-09-26T11:57:52Z</time>
      </trkpt>
      <trkpt lat="43.61118" lon="3.73614">
        <ele>152.5</ele>
        <time>2021-09-26T11:58:02Z</time>
      </trkpt>
      <trkpt lat="43.61127" lon="3.73583">
        <ele>152</ele>
        <time>2021-09-26T11:58:12Z</time>
      </trkpt>
      <trkpt lat="43.61151" lon="3.73532">
        <ele>151.7</ele>
        <time>2021-09-26T11:58:22Z</time>
      </trkpt>
      <trkpt lat="43.61139" lon="3.73484">
        <ele>154.3</ele>
        <time>2021-09-26T11:58:32Z</time>
      </trkpt>
      <trkpt lat="43.6114" lon="3.73452">
        <ele>156.2</ele>
        <time>2021-09-26T11:58:42Z</time>
      </trkpt>
      <trkpt lat="43.61144" lon="3.73438">
        <ele>156.2</ele>
        <time>2021-09-26T11:58:52Z</time>
      </trkpt>
      <trkpt lat="43.61125" lon="3.73423">
        <ele>161.5</ele>
        <time>2021-09-26T11:59:42Z</time>
      </trkpt>
      <trkpt lat="43.61113" lon="3.73428">
        <ele>163.7</ele>
        <time>2021-09-26T12:00:02Z</time>
      </trkpt>
      <trkpt lat="43.61102" lon="3.73436">
        <ele>165.3</ele>
        <time>2021-09-26T12:00:12Z</time>
      </trkpt>
      <trkpt lat="43.61092" lon="3.73433">
        <ele>167.8</ele>
        <time>2021-09-26T12:00:22Z</time>
      </trkpt>
      <trkpt lat="43.61081" lon="3.73424">
        <ele>170.8</ele>
        <time>2021-09-26T12:00:32Z</time>
      </trkpt>
      <trkpt lat="43.61073" lon="3.73412">
        <ele>171.7</ele>
        <time>2021-09-26T12:00:42Z</time>
      </trkpt>
      <trkpt lat="43.61066" lon="3.73399">
        <ele>172.1</ele>
        <time>2021-09-26T12:00:52Z</time>
      </trkpt>
      <trkpt lat="43.61054" lon="3.73393">
        <ele>172.1</ele>
        <time>2021-09-26T12:01:02Z</time>
      </trkpt>
      <trkpt lat="43.61046" lon="3.73384">
        <ele>172.6</ele>
        <time>2021-09-26T12:01:12Z</time>
      </trkpt>
      <trkpt lat="43.61038" lon="3.73374">
        <ele>173.3</ele>
        <time>2021-09-26T12:01:22Z</time>
      </trkpt>
      <trkpt lat="43.61028" lon="3.73363">
        <ele>174.3</ele>
        <time>2021-09-26T12:01:32Z</time>
      </trkpt>
      <trkpt lat="43.6102" lon="3.7335">
        <ele>175.6</ele>
        <time>2021-09-26T12:01:42Z</time>
      </trkpt>
      <trkpt lat="43.61013" lon="3.73332">
        <ele>177.6</ele>
        <time>2021-09-26T12:01:52Z</time>
      </trkpt>
      <trkpt lat="43.61011" lon="3.73314">
        <ele>178.5</ele>
        <time>2021-09-26T12:02:02Z</time>
      </trkpt>
      <trkpt lat="43.61006" lon="3.73301">
        <ele>179.3</ele>
        <time>2021-09-26T12:02:22Z</time>
      </trkpt>
      <trkpt lat="43.61004" lon="3.7327">
        <ele>180.8</ele>
        <time>2021-09-26T12:02:42Z</time>
      </trkpt>
      <trkpt lat="43.61004" lon="3.73239">
        <ele>182.2</ele>
        <time>2021-09-26T12:02:52Z</time>
      </trkpt>
      <trkpt lat="43.61002" lon="3.732">
        <ele>183.8</ele>
        <time>2021-09-26T12:03:02Z</time>
      </trkpt>
      <trkpt lat="43.60991" lon="3.73164">
        <ele>183.3</ele>
        <time>2021-09-26T12:03:12Z</time>
      </trkpt>
      <trkpt lat="43.60975" lon="3.73128">
        <ele>182.8</ele>
        <time>2021-09-26T12:03:22Z</time>
      </trkpt>
      <trkpt lat="43.60956" lon="3.73094">
        <ele>182.1</ele>
        <time>2021-09-26T12:03:32Z</time>
      </trkpt>
      <trkpt lat="43.60942" lon="3.73061">
        <ele>181.2</ele>
        <time>2021-09-26T12:03:42Z</time>
      </trkpt>
      <trkpt lat="43.60937" lon="3.73028">
        <ele>181.5</ele>
        <time>2021-09-26T12:03:52Z</time>
      </trkpt>
      <trkpt lat="43.60945" lon="3.72991">
        <ele>182.5</ele>
        <time>2021-09-26T12:04:02Z</time>
      </trkpt>
      <trkpt lat="43.60944" lon="3.72965">
        <ele>179.9</ele>
        <time>2021-09-26T12:04:12Z</time>
      </trkpt>
      <trkpt lat="43.60926" lon="3.7294">
        <ele>176.3</ele>
        <time>2021-09-26T12:04:22Z</time>
      </trkpt>
      <trkpt lat="43.60905" lon="3.72905">
        <ele>170.2</ele>
        <time>2021-09-26T12:04:32Z</time>
      </trkpt>
      <trkpt lat="43.60891" lon="3.7288">
        <ele>165</ele>
        <time>2021-09-26T12:04:42Z</time>
      </trkpt>
      <trkpt lat="43.60883" lon="3.72849">
        <ele>161</ele>
        <time>2021-09-26T12:04:52Z</time>
      </trkpt>
      <trkpt lat="43.60862" lon="3.72812">
        <ele>157.1</ele>
        <time>2021-09-26T12:05:02Z</time>
      </trkpt>
      <trkpt lat="43.60842" lon="3.72798">
        <ele>155.6</ele>
        <time>2021-09-26T12:05:22Z</time>
      </trkpt>
      <trkpt lat="43.60831" lon="3.72758">
        <ele>154.6</ele>
        <time>2021-09-26T12:06:52Z</time>
      </trkpt>
      <trkpt lat="43.60823" lon="3.72729">
        <ele>156.3</ele>
        <time>2021-09-26T12:07:12Z</time>
      </trkpt>
      <trkpt lat="43.60817" lon="3.72698">
        <ele>158.2</ele>
        <time>2021-09-26T12:07:22Z</time>
      </trkpt>
      <trkpt lat="43.60813" lon="3.72665">
        <ele>159.9</ele>
        <time>2021-09-26T12:07:32Z</time>
      </trkpt>
      <trkpt lat="43.60809" lon="3.72634">
        <ele>161.5</ele>
        <time>2021-09-26T12:07:42Z</time>
      </trkpt>
      <trkpt lat="43.60803" lon="3.72605">
        <ele>163.2</ele>
        <time>2021-09-26T12:07:52Z</time>
      </trkpt>
      <trkpt lat="43.60796" lon="3.72577">
        <ele>164.7</ele>
        <time>2021-09-26T12:08:02Z</time>
      </trkpt>
      <trkpt lat="43.60786" lon="3.72552">
        <ele>165.5</ele>
        <time>2021-09-26T12:08:12Z</time>
      </trkpt>
      <trkpt lat="43.60778" lon="3.72523">
        <ele>165.5</ele>
        <time>2021-09-26T12:08:22Z</time>
      </trkpt>
      <trkpt lat="43.60771" lon="3.72495">
        <ele>165.4</ele>
        <time>2021-09-26T12:08:32Z</time>
      </trkpt>
      <trkpt lat="43.60763" lon="3.72471">
        <ele>166.5</ele>
        <time>2021-09-26T12:08:42Z</time>
      </trkpt>
      <trkpt lat="43.60757" lon="3.72449">
        <ele>167.2</ele>
        <time>2021-09-26T12:08:52Z</time>
      </trkpt>
      <trkpt lat="43.6075" lon="3.72426">
        <ele>167.9</ele>
        <time>2021-09-26T12:09:02Z</time>
      </trkpt>
      <trkpt lat="43.60744" lon="3.72404">
        <ele>169.3</ele>
        <time>2021-09-26T12:09:12Z</time>
      </trkpt>
      <trkpt lat="43.60733" lon="3.72387">
        <ele>171.3</ele>
        <time>2021-09-26T12:09:22Z</time>
      </trkpt>
      <trkpt lat="43.60726" lon="3.72367">
        <ele>172.9</ele>
        <time>2021-09-26T12:09:32Z</time>
      </trkpt>
      <trkpt lat="43.60717" lon="3.72352">
        <ele>174.4</ele>
        <time>2021-09-26T12:09:42Z</time>
      </trkpt>
      <trkpt lat="43.6071" lon="3.72338">
        <ele>175.7</ele>
        <time>2021-09-26T12:09:52Z</time>
      </trkpt>
      <trkpt lat="43.60698" lon="3.72315">
        <ele>177.6</ele>
        <time>2021-09-26T12:10:02Z</time>
      </trkpt>
      <trkpt lat="43.60692" lon="3.72299">
        <ele>178.4</ele>
        <time>2021-09-26T12:10:12Z</time>
      </trkpt>
      <trkpt lat="43.60682" lon="3.72278">
        <ele>178.8</ele>
        <time>2021-09-26T12:10:22Z</time>
      </trkpt>
      <trkpt lat="43.60685" lon="3.72249">
        <ele>179.1</ele>
        <time>2021-09-26T12:10:32Z</time>
      </trkpt>
      <trkpt lat="43.60679" lon="3.72212">
        <ele>178.7</ele>
        <time>2021-09-26T12:10:42Z</time>
      </trkpt>
      <trkpt lat="43.60668" lon="3.72172">
        <ele>176.4</ele>
        <time>2021-09-26T12:10:52Z</time>
      </trkpt>
      <trkpt lat="43.60646" lon="3.72128">
        <ele>176.8</ele>
        <time>2021-09-26T12:11:02Z</time>
      </trkpt>
      <trkpt lat="43.60616" lon="3.72117">
        <ele>173.9</ele>
        <time>2021-09-26T12:11:12Z</time>
      </trkpt>
      <trkpt lat="43.60596" lon="3.7214">
        <ele>170.4</ele>
        <time>2021-09-26T12:11:22Z</time>
      </trkpt>
      <trkpt lat="43.60577" lon="3.72173">
        <ele>167.8</ele>
        <time>2021-09-26T12:11:32Z</time>
      </trkpt>
      <trkpt lat="43.60561" lon="3.72223">
        <ele>166.3</ele>
        <time>2021-09-26T12:11:42Z</time>
      </trkpt>
      <trkpt lat="43.60538" lon="3.72278">
        <ele>164.2</ele>
        <time>2021-09-26T12:11:52Z</time>
      </trkpt>
      <trkpt lat="43.60509" lon="3.72336">
        <ele>159.9</ele>
        <time>2021-09-26T12:12:02Z</time>
      </trkpt>
      <trkpt lat="43.60485" lon="3.72389">
        <ele>159.7</ele>
        <time>2021-09-26T12:12:12Z</time>
      </trkpt>
      <trkpt lat="43.60444" lon="3.72442">
        <ele>158.5</ele>
        <time>2021-09-26T12:12:22Z</time>
      </trkpt>
      <trkpt lat="43.604" lon="3.72467">
        <ele>156.5</ele>
        <time>2021-09-26T12:12:32Z</time>
      </trkpt>
      <trkpt lat="43.60349" lon="3.72504">
        <ele>154.3</ele>
        <time>2021-09-26T12:12:42Z</time>
      </trkpt>
      <trkpt lat="43.60303" lon="3.72538">
        <ele>153.7</ele>
        <time>2021-09-26T12:12:52Z</time>
      </trkpt>
      <trkpt lat="43.60259" lon="3.72569">
        <ele>149.4</ele>
        <time>2021-09-26T12:13:02Z</time>
      </trkpt>
      <trkpt lat="43.60218" lon="3.72605">
        <ele>146.7</ele>
        <time>2021-09-26T12:13:12Z</time>
      </trkpt>
      <trkpt lat="43.60191" lon="3.72633">
        <ele>144.8</ele>
        <time>2021-09-26T12:13:22Z</time>
      </trkpt>
      <trkpt lat="43.60157" lon="3.72673">
        <ele>140.7</ele>
        <time>2021-09-26T12:13:32Z</time>
      </trkpt>
      <trkpt lat="43.6013" lon="3.72709">
        <ele>139.3</ele>
        <time>2021-09-26T12:13:42Z</time>
      </trkpt>
      <trkpt lat="43.60096" lon="3.72744">
        <ele>137.5</ele>
        <time>2021-09-26T12:13:52Z</time>
      </trkpt>
      <trkpt lat="43.60065" lon="3.72766">
        <ele>136</ele>
        <time>2021-09-26T12:14:02Z</time>
      </trkpt>
      <trkpt lat="43.60044" lon="3.72735">
        <ele>136.7</ele>
        <time>2021-09-26T12:14:12Z</time>
      </trkpt>
      <trkpt lat="43.60013" lon="3.7271">
        <ele>137.2</ele>
        <time>2021-09-26T12:14:22Z</time>
      </trkpt>
      <trkpt lat="43.59981" lon="3.72714">
        <ele>136.6</ele>
        <time>2021-09-26T12:14:32Z</time>
      </trkpt>
      <trkpt lat="43.59954" lon="3.72695">
        <ele>137.3</ele>
        <time>2021-09-26T12:14:42Z</time>
      </trkpt>
      <trkpt lat="43.59934" lon="3.72668">
        <ele>138.2</ele>
        <time>2021-09-26T12:14:52Z</time>
      </trkpt>
      <trkpt lat="43.59898" lon="3.72633">
        <ele>139.7</ele>
        <time>2021-09-26T12:15:02Z</time>
      </trkpt>
      <trkpt lat="43.59871" lon="3.726">
        <ele>140.5</ele>
        <time>2021-09-26T12:15:12Z</time>
      </trkpt>
      <trkpt lat="43.59844" lon="3.72596">
        <ele>140.2</ele>
        <time>2021-09-26T12:15:22Z</time>
      </trkpt>
      <trkpt lat="43.59813" lon="3.72608">
        <ele>140.2</ele>
        <time>2021-09-26T12:15:32Z</time>
      </trkpt>
      <trkpt lat="43.59778" lon="3.72615">
        <ele>140.8</ele>
        <time>2021-09-26T12:15:42Z</time>
      </trkpt>
      <trkpt lat="43.59744" lon="3.72631">
        <ele>141.9</ele>
        <time>2021-09-26T12:15:52Z</time>
      </trkpt>
      <trkpt lat="43.59713" lon="3.72651">
        <ele>142.9</ele>
        <time>2021-09-26T12:16:02Z</time>
      </trkpt>
      <trkpt lat="43.59684" lon="3.72671">
        <ele>143.1</ele>
        <time>2021-09-26T12:16:12Z</time>
      </trkpt>
      <trkpt lat="43.59662" lon="3.72676">
        <ele>143</ele>
        <time>2021-09-26T12:16:22Z</time>
      </trkpt>
      <trkpt lat="43.59641" lon="3.72673">
        <ele>143.2</ele>
        <time>2021-09-26T12:16:32Z</time>
      </trkpt>
      <trkpt lat="43.5962" lon="3.72672">
        <ele>143.4</ele>
        <time>2021-09-26T12:16:42Z</time>
      </trkpt>
      <trkpt lat="43.5962" lon="3.72645">
        <ele>144.4</ele>
        <time>2021-09-26T12:16:52Z</time>
      </trkpt>
      <trkpt lat="43.59627" lon="3.72606">
        <ele>145.6</ele>
        <time>2021-09-26T12:17:02Z</time>
      </trkpt>
      <trkpt lat="43.59634" lon="3.72573">
        <ele>146.2</ele>
        <time>2021-09-26T12:17:12Z</time>
      </trkpt>
      <trkpt lat="43.59655" lon="3.7256">
        <ele>145.5</ele>
        <time>2021-09-26T12:17:22Z</time>
      </trkpt>
      <trkpt lat="43.59674" lon="3.72529">
        <ele>144.7</ele>
        <time>2021-09-26T12:17:32Z</time>
      </trkpt>
      <trkpt lat="43.59681" lon="3.7249">
        <ele>145.2</ele>
        <time>2021-09-26T12:17:42Z</time>
      </trkpt>
      <trkpt lat="43.59689" lon="3.72463">
        <ele>146.6</ele>
        <time>2021-09-26T12:17:52Z</time>
      </trkpt>
      <trkpt lat="43.59699" lon="3.72432">
        <ele>148.4</ele>
        <time>2021-09-26T12:18:02Z</time>
      </trkpt>
      <trkpt lat="43.597" lon="3.72399">
        <ele>150.6</ele>
        <time>2021-09-26T12:18:12Z</time>
      </trkpt>
      <trkpt lat="43.59717" lon="3.72377">
        <ele>152.6</ele>
        <time>2021-09-26T12:18:22Z</time>
      </trkpt>
      <trkpt lat="43.59734" lon="3.72368">
        <ele>153.7</ele>
        <time>2021-09-26T12:18:32Z</time>
      </trkpt>
      <trkpt lat="43.59734" lon="3.72344">
        <ele>155.6</ele>
        <time>2021-09-26T12:18:42Z</time>
      </trkpt>
      <trkpt lat="43.59731" lon="3.72317">
        <ele>156.9</ele>
        <time>2021-09-26T12:18:52Z</time>
      </trkpt>
      <trkpt lat="43.59727" lon="3.72289">
        <ele>157.6</ele>
        <time>2021-09-26T12:19:02Z</time>
      </trkpt>
      <trkpt lat="43.59724" lon="3.72259">
        <ele>158.5</ele>
        <time>2021-09-26T12:19:12Z</time>
      </trkpt>
      <trkpt lat="43.59724" lon="3.72226">
        <ele>159</ele>
        <time>2021-09-26T12:19:22Z</time>
      </trkpt>
      <trkpt lat="43.59723" lon="3.72192">
        <ele>159.4</ele>
        <time>2021-09-26T12:19:32Z</time>
      </trkpt>
      <trkpt lat="43.5972" lon="3.72165">
        <ele>159.7</ele>
        <time>2021-09-26T12:19:42Z</time>
      </trkpt>
      <trkpt lat="43.59716" lon="3.72144">
        <ele>160.8</ele>
        <time>2021-09-26T12:19:52Z</time>
      </trkpt>
      <trkpt lat="43.59716" lon="3.72127">
        <ele>161.7</ele>
        <time>2021-09-26T12:20:02Z</time>
      </trkpt>
      <trkpt lat="43.59721" lon="3.72109">
        <ele>162.8</ele>
        <time>2021-09-26T12:20:12Z</time>
      </trkpt>
      <trkpt lat="43.59724" lon="3.72091">
        <ele>164</ele>
        <time>2021-09-26T12:20:22Z</time>
      </trkpt>
      <trkpt lat="43.59723" lon="3.72071">
        <ele>165</ele>
        <time>2021-09-26T12:20:32Z</time>
      </trkpt>
      <trkpt lat="43.59719" lon="3.72053">
        <ele>165.7</ele>
        <time>2021-09-26T12:20:42Z</time>
      </trkpt>
      <trkpt lat="43.59718" lon="3.72034">
        <ele>166.6</ele>
        <time>2021-09-26T12:20:52Z</time>
      </trkpt>
      <trkpt lat="43.59718" lon="3.72017">
        <ele>167.4</ele>
        <time>2021-09-26T12:21:02Z</time>
      </trkpt>
      <trkpt lat="43.5972" lon="3.72002">
        <ele>168.4</ele>
        <time>2021-09-26T12:21:12Z</time>
      </trkpt>
      <trkpt lat="43.59722" lon="3.71987">
        <ele>169.7</ele>
        <time>2021-09-26T12:21:22Z</time>
      </trkpt>
      <trkpt lat="43.59726" lon="3.71972">
        <ele>171.3</ele>
        <time>2021-09-26T12:21:32Z</time>
      </trkpt>
      <trkpt lat="43.59728" lon="3.71955">
        <ele>172.9</ele>
        <time>2021-09-26T12:21:42Z</time>
      </trkpt>
      <trkpt lat="43.59728" lon="3.7194">
        <ele>174.2</ele>
        <time>2021-09-26T12:21:52Z</time>
      </trkpt>
      <trkpt lat="43.59729" lon="3.71925">
        <ele>175.5</ele>
        <time>2021-09-26T12:22:02Z</time>
      </trkpt>
      <trkpt lat="43.5973" lon="3.71908">
        <ele>176.7</ele>
        <time>2021-09-26T12:22:12Z</time>
      </trkpt>
      <trkpt lat="43.59734" lon="3.71892">
        <ele>177.7</ele>
        <time>2021-09-26T12:22:22Z</time>
      </trkpt>
      <trkpt lat="43.59739" lon="3.71876">
        <ele>178.8</ele>
        <time>2021-09-26T12:22:32Z</time>
      </trkpt>
      <trkpt lat="43.59746" lon="3.71857">
        <ele>180.4</ele>
        <time>2021-09-26T12:22:42Z</time>
      </trkpt>
      <trkpt lat="43.59755" lon="3.71836">
        <ele>182.4</ele>
        <time>2021-09-26T12:22:52Z</time>
      </trkpt>
      <trkpt lat="43.59765" lon="3.71815">
        <ele>184.2</ele>
        <time>2021-09-26T12:23:02Z</time>
      </trkpt>
      <trkpt lat="43.59773" lon="3.71796">
        <ele>185.6</ele>
        <time>2021-09-26T12:23:12Z</time>
      </trkpt>
      <trkpt lat="43.59779" lon="3.71778">
        <ele>186.7</ele>
        <time>2021-09-26T12:23:22Z</time>
      </trkpt>
      <trkpt lat="43.59783" lon="3.7176">
        <ele>187.6</ele>
        <time>2021-09-26T12:23:32Z</time>
      </trkpt>
      <trkpt lat="43.5979" lon="3.71744">
        <ele>188.1</ele>
        <time>2021-09-26T12:23:42Z</time>
      </trkpt>
      <trkpt lat="43.59795" lon="3.71727">
        <ele>187.8</ele>
        <time>2021-09-26T12:23:52Z</time>
      </trkpt>
      <trkpt lat="43.59802" lon="3.71709">
        <ele>187.6</ele>
        <time>2021-09-26T12:24:02Z</time>
      </trkpt>
      <trkpt lat="43.5981" lon="3.71692">
        <ele>187.6</ele>
        <time>2021-09-26T12:24:12Z</time>
      </trkpt>
      <trkpt lat="43.59835" lon="3.71684">
        <ele>189.6</ele>
        <time>2021-09-26T12:24:22Z</time>
      </trkpt>
      <trkpt lat="43.59864" lon="3.7165">
        <ele>189.2</ele>
        <time>2021-09-26T12:24:32Z</time>
      </trkpt>
      <trkpt lat="43.59881" lon="3.71597">
        <ele>182.4</ele>
        <time>2021-09-26T12:24:42Z</time>
      </trkpt>
      <trkpt lat="43.59907" lon="3.71572">
        <ele>180.3</ele>
        <time>2021-09-26T12:24:52Z</time>
      </trkpt>
      <trkpt lat="43.59928" lon="3.71544">
        <ele>179.3</ele>
        <time>2021-09-26T12:25:02Z</time>
      </trkpt>
      <trkpt lat="43.59926" lon="3.71516">
        <ele>176.3</ele>
        <time>2021-09-26T12:25:12Z</time>
      </trkpt>
      <trkpt lat="43.59919" lon="3.71489">
        <ele>172.4</ele>
        <time>2021-09-26T12:25:22Z</time>
      </trkpt>
      <trkpt lat="43.59909" lon="3.71459">
        <ele>168.3</ele>
        <time>2021-09-26T12:25:32Z</time>
      </trkpt>
      <trkpt lat="43.59897" lon="3.71417">
        <ele>162.9</ele>
        <time>2021-09-26T12:25:42Z</time>
      </trkpt>
      <trkpt lat="43.59886" lon="3.71362">
        <ele>156.8</ele>
        <time>2021-09-26T12:25:52Z</time>
      </trkpt>
      <trkpt lat="43.59879" lon="3.713">
        <ele>150.1</ele>
        <time>2021-09-26T12:26:02Z</time>
      </trkpt>
      <trkpt lat="43.59883" lon="3.71251">
        <ele>146.2</ele>
        <time>2021-09-26T12:26:12Z</time>
      </trkpt>
      <trkpt lat="43.59886" lon="3.71233">
        <ele>144.7</ele>
        <time>2021-09-26T12:26:22Z</time>
      </trkpt>
      <trkpt lat="43.59891" lon="3.71195">
        <ele>141.4</ele>
        <time>2021-09-26T12:26:32Z</time>
      </trkpt>
      <trkpt lat="43.59903" lon="3.71158">
        <ele>139.3</ele>
        <time>2021-09-26T12:26:42Z</time>
      </trkpt>
      <trkpt lat="43.59914" lon="3.71102">
        <ele>135.6</ele>
        <time>2021-09-26T12:26:52Z</time>
      </trkpt>
      <trkpt lat="43.59936" lon="3.71048">
        <ele>135.4</ele>
        <time>2021-09-26T12:27:02Z</time>
      </trkpt>
      <trkpt lat="43.59945" lon="3.71015">
        <ele>135</ele>
        <time>2021-09-26T12:27:12Z</time>
      </trkpt>
      <trkpt lat="43.59952" lon="3.70977">
        <ele>135.9</ele>
        <time>2021-09-26T12:27:22Z</time>
      </trkpt>
      <trkpt lat="43.59962" lon="3.70942">
        <ele>137.8</ele>
        <time>2021-09-26T12:27:32Z</time>
      </trkpt>
      <trkpt lat="43.59967" lon="3.7092">
        <ele>138.9</ele>
        <time>2021-09-26T12:27:42Z</time>
      </trkpt>
      <trkpt lat="43.59974" lon="3.70899">
        <ele>140.2</ele>
        <time>2021-09-26T12:27:52Z</time>
      </trkpt>
      <trkpt lat="43.5998" lon="3.70873">
        <ele>141.9</ele>
        <time>2021-09-26T12:28:02Z</time>
      </trkpt>
      <trkpt lat="43.59981" lon="3.70847">
        <ele>143.6</ele>
        <time>2021-09-26T12:28:12Z</time>
      </trkpt>
      <trkpt lat="43.59993" lon="3.70825">
        <ele>145</ele>
        <time>2021-09-26T12:28:22Z</time>
      </trkpt>
      <trkpt lat="43.60009" lon="3.70804">
        <ele>148.7</ele>
        <time>2021-09-26T12:28:32Z</time>
      </trkpt>
      <trkpt lat="43.6002" lon="3.70781">
        <ele>152.7</ele>
        <time>2021-09-26T12:28:42Z</time>
      </trkpt>
      <trkpt lat="43.60026" lon="3.70762">
        <ele>155</ele>
        <time>2021-09-26T12:28:52Z</time>
      </trkpt>
      <trkpt lat="43.6003" lon="3.70741">
        <ele>156.8</ele>
        <time>2021-09-26T12:29:02Z</time>
      </trkpt>
      <trkpt lat="43.60032" lon="3.70723">
        <ele>157.9</ele>
        <time>2021-09-26T12:29:12Z</time>
      </trkpt>
      <trkpt lat="43.60038" lon="3.70704">
        <ele>159</ele>
        <time>2021-09-26T12:29:22Z</time>
      </trkpt>
      <trkpt lat="43.60045" lon="3.70683">
        <ele>159.6</ele>
        <time>2021-09-26T12:29:32Z</time>
      </trkpt>
      <trkpt lat="43.60056" lon="3.70657">
        <ele>159.8</ele>
        <time>2021-09-26T12:29:42Z</time>
      </trkpt>
      <trkpt lat="43.60062" lon="3.70634">
        <ele>160.3</ele>
        <time>2021-09-26T12:29:52Z</time>
      </trkpt>
      <trkpt lat="43.60064" lon="3.70609">
        <ele>161</ele>
        <time>2021-09-26T12:30:02Z</time>
      </trkpt>
      <trkpt lat="43.60066" lon="3.70585">
        <ele>161.5</ele>
        <time>2021-09-26T12:30:12Z</time>
      </trkpt>
      <trkpt lat="43.60066" lon="3.70561">
        <ele>163.8</ele>
        <time>2021-09-26T12:30:22Z</time>
      </trkpt>
      <trkpt lat="43.60071" lon="3.70536">
        <ele>165.2</ele>
        <time>2021-09-26T12:30:32Z</time>
      </trkpt>
      <trkpt lat="43.60072" lon="3.70516">
        <ele>167</ele>
        <time>2021-09-26T12:30:42Z</time>
      </trkpt>
      <trkpt lat="43.60074" lon="3.70499">
        <ele>168.2</ele>
        <time>2021-09-26T12:30:52Z</time>
      </trkpt>
      <trkpt lat="43.6008" lon="3.7048">
        <ele>168.4</ele>
        <time>2021-09-26T12:31:02Z</time>
      </trkpt>
      <trkpt lat="43.60088" lon="3.70463">
        <ele>169.3</ele>
        <time>2021-09-26T12:31:12Z</time>
      </trkpt>
      <trkpt lat="43.60101" lon="3.70449">
        <ele>170.8</ele>
        <time>2021-09-26T12:31:22Z</time>
      </trkpt>
      <trkpt lat="43.60113" lon="3.70438">
        <ele>171.7</ele>
        <time>2021-09-26T12:31:32Z</time>
      </trkpt>
      <trkpt lat="43.60127" lon="3.70431">
        <ele>172.1</ele>
        <time>2021-09-26T12:31:42Z</time>
      </trkpt>
      <trkpt lat="43.6014" lon="3.7043">
        <ele>172.2</ele>
        <time>2021-09-26T12:31:52Z</time>
      </trkpt>
      <trkpt lat="43.60155" lon="3.70435">
        <ele>172.3</ele>
        <time>2021-09-26T12:32:02Z</time>
      </trkpt>
      <trkpt lat="43.60168" lon="3.70438">
        <ele>172.7</ele>
        <time>2021-09-26T12:32:12Z</time>
      </trkpt>
      <trkpt lat="43.60184" lon="3.70442">
        <ele>174.5</ele>
        <time>2021-09-26T12:32:22Z</time>
      </trkpt>
      <trkpt lat="43.60199" lon="3.70442">
        <ele>176.2</ele>
        <time>2021-09-26T12:32:32Z</time>
      </trkpt>
      <trkpt lat="43.60212" lon="3.70439">
        <ele>177.6</ele>
        <time>2021-09-26T12:32:42Z</time>
      </trkpt>
      <trkpt lat="43.60222" lon="3.70436">
        <ele>178.6</ele>
        <time>2021-09-26T12:32:52Z</time>
      </trkpt>
      <trkpt lat="43.60233" lon="3.70434">
        <ele>179.7</ele>
        <time>2021-09-26T12:33:02Z</time>
      </trkpt>
      <trkpt lat="43.60246" lon="3.70435">
        <ele>181.2</ele>
        <time>2021-09-26T12:33:12Z</time>
      </trkpt>
      <trkpt lat="43.60259" lon="3.70438">
        <ele>182.4</ele>
        <time>2021-09-26T12:33:22Z</time>
      </trkpt>
      <trkpt lat="43.60267" lon="3.7045">
        <ele>183.3</ele>
        <time>2021-09-26T12:33:32Z</time>
      </trkpt>
      <trkpt lat="43.60274" lon="3.70463">
        <ele>184.2</ele>
        <time>2021-09-26T12:33:42Z</time>
      </trkpt>
      <trkpt lat="43.60287" lon="3.70463">
        <ele>185.1</ele>
        <time>2021-09-26T12:33:52Z</time>
      </trkpt>
      <trkpt lat="43.60301" lon="3.70463">
        <ele>186</ele>
        <time>2021-09-26T12:34:02Z</time>
      </trkpt>
      <trkpt lat="43.60316" lon="3.70465">
        <ele>187</ele>
        <time>2021-09-26T12:34:12Z</time>
      </trkpt>
      <trkpt lat="43.60327" lon="3.70452">
        <ele>187.4</ele>
        <time>2021-09-26T12:34:22Z</time>
      </trkpt>
      <trkpt lat="43.60335" lon="3.70432">
        <ele>187.4</ele>
        <time>2021-09-26T12:34:32Z</time>
      </trkpt>
      <trkpt lat="43.60346" lon="3.70417">
        <ele>187.9</ele>
        <time>2021-09-26T12:34:42Z</time>
      </trkpt>
      <trkpt lat="43.60352" lon="3.70402">
        <ele>188.8</ele>
        <time>2021-09-26T12:34:52Z</time>
      </trkpt>
      <trkpt lat="43.60344" lon="3.70389">
        <ele>188.7</ele>
        <time>2021-09-26T12:35:02Z</time>
      </trkpt>
      <trkpt lat="43.60332" lon="3.7038">
        <ele>188.3</ele>
        <time>2021-09-26T12:35:12Z</time>
      </trkpt>
      <trkpt lat="43.6032" lon="3.70369">
        <ele>188.9</ele>
        <time>2021-09-26T12:35:22Z</time>
      </trkpt>
      <trkpt lat="43.6031" lon="3.70359">
        <ele>189.9</ele>
        <time>2021-09-26T12:35:32Z</time>
      </trkpt>
      <trkpt lat="43.603" lon="3.70355">
        <ele>190.7</ele>
        <time>2021-09-26T12:35:42Z</time>
      </trkpt>
      <trkpt lat="43.60288" lon="3.70351">
        <ele>191.7</ele>
        <time>2021-09-26T12:35:52Z</time>
      </trkpt>
      <trkpt lat="43.60268" lon="3.70346">
        <ele>193.5</ele>
        <time>2021-09-26T12:36:12Z</time>
      </trkpt>
      <trkpt lat="43.60256" lon="3.70342">
        <ele>194.9</ele>
        <time>2021-09-26T12:36:32Z</time>
      </trkpt>
      <trkpt lat="43.60245" lon="3.70334">
        <ele>196.3</ele>
        <time>2021-09-26T12:36:42Z</time>
      </trkpt>
      <trkpt lat="43.60233" lon="3.70323">
        <ele>196.1</ele>
        <time>2021-09-26T12:36:52Z</time>
      </trkpt>
      <trkpt lat="43.60217" lon="3.70313">
        <ele>195.5</ele>
        <time>2021-09-26T12:37:02Z</time>
      </trkpt>
      <trkpt lat="43.60199" lon="3.70293">
        <ele>196.2</ele>
        <time>2021-09-26T12:37:12Z</time>
      </trkpt>
      <trkpt lat="43.60183" lon="3.70269">
        <ele>198.2</ele>
        <time>2021-09-26T12:37:22Z</time>
      </trkpt>
      <trkpt lat="43.60161" lon="3.70234">
        <ele>199.8</ele>
        <time>2021-09-26T12:37:32Z</time>
      </trkpt>
      <trkpt lat="43.60152" lon="3.70212">
        <ele>199.9</ele>
        <time>2021-09-26T12:37:42Z</time>
      </trkpt>
      <trkpt lat="43.60137" lon="3.70177">
        <ele>201.1</ele>
        <time>2021-09-26T12:37:52Z</time>
      </trkpt>
      <trkpt lat="43.6013" lon="3.70137">
        <ele>199.7</ele>
        <time>2021-09-26T12:38:02Z</time>
      </trkpt>
      <trkpt lat="43.60143" lon="3.7013">
        <ele>197.3</ele>
        <time>2021-09-26T12:38:12Z</time>
      </trkpt>
      <trkpt lat="43.60162" lon="3.70105">
        <ele>192.1</ele>
        <time>2021-09-26T12:38:22Z</time>
      </trkpt>
      <trkpt lat="43.60179" lon="3.70069">
        <ele>187.9</ele>
        <time>2021-09-26T12:38:32Z</time>
      </trkpt>
      <trkpt lat="43.6021" lon="3.70033">
        <ele>182.9</ele>
        <time>2021-09-26T12:38:42Z</time>
      </trkpt>
      <trkpt lat="43.6022" lon="3.69997">
        <ele>177.7</ele>
        <time>2021-09-26T12:38:52Z</time>
      </trkpt>
      <trkpt lat="43.6023" lon="3.69958">
        <ele>173.7</ele>
        <time>2021-09-26T12:39:02Z</time>
      </trkpt>
      <trkpt lat="43.6022" lon="3.69913">
        <ele>171</ele>
        <time>2021-09-26T12:39:12Z</time>
      </trkpt>
      <trkpt lat="43.60205" lon="3.69879">
        <ele>170.3</ele>
        <time>2021-09-26T12:39:22Z</time>
      </trkpt>
      <trkpt lat="43.60188" lon="3.6986">
        <ele>169</ele>
        <time>2021-09-26T12:39:32Z</time>
      </trkpt>
      <trkpt lat="43.6018" lon="3.69832">
        <ele>167.1</ele>
        <time>2021-09-26T12:39:42Z</time>
      </trkpt>
      <trkpt lat="43.60194" lon="3.69828">
        <ele>168.5</ele>
        <time>2021-09-26T12:40:22Z</time>
      </trkpt>
      <trkpt lat="43.60202" lon="3.69832">
        <ele>168.7</ele>
        <time>2021-09-26T12:40:52Z</time>
      </trkpt>
      <trkpt lat="43.60214" lon="3.69838">
        <ele>169.5</ele>
        <time>2021-09-26T12:41:12Z</time>
      </trkpt>
      <trkpt lat="43.60224" lon="3.69852">
        <ele>170.3</ele>
        <time>2021-09-26T12:41:22Z</time>
      </trkpt>
      <trkpt lat="43.60237" lon="3.69854">
        <ele>170.9</ele>
        <time>2021-09-26T12:41:32Z</time>
      </trkpt>
      <trkpt lat="43.60244" lon="3.69856">
        <ele>171.2</ele>
        <time>2021-09-26T12:41:42Z</time>
      </trkpt>
      <trkpt lat="43.60251" lon="3.69858">
        <ele>171.5</ele>
        <time>2021-09-26T12:41:52Z</time>
      </trkpt>
      <trkpt lat="43.60259" lon="3.69863">
        <ele>171.9</ele>
        <time>2021-09-26T12:42:02Z</time>
      </trkpt>
      <trkpt lat="43.60267" lon="3.69868">
        <ele>172.3</ele>
        <time>2021-09-26T12:42:12Z</time>
      </trkpt>
      <trkpt lat="43.60282" lon="3.69877">
        <ele>173.1</ele>
        <time>2021-09-26T12:42:32Z</time>
      </trkpt>
      <trkpt lat="43.6029" lon="3.69877">
        <ele>173.6</ele>
        <time>2021-09-26T12:42:52Z</time>
      </trkpt>
      <trkpt lat="43.60299" lon="3.69872">
        <ele>174.3</ele>
        <time>2021-09-26T12:43:02Z</time>
      </trkpt>
      <trkpt lat="43.60308" lon="3.69858">
        <ele>175.1</ele>
        <time>2021-09-26T12:43:12Z</time>
      </trkpt>
      <trkpt lat="43.60318" lon="3.69844">
        <ele>175.9</ele>
        <time>2021-09-26T12:43:32Z</time>
      </trkpt>
      <trkpt lat="43.60325" lon="3.69878">
        <ele>175.9</ele>
        <time>2021-09-26T12:46:02Z</time>
      </trkpt>
      <trkpt lat="43.60334" lon="3.69906">
        <ele>176</ele>
        <time>2021-09-26T12:46:22Z</time>
      </trkpt>
      <trkpt lat="43.60335" lon="3.69936">
        <ele>175.1</ele>
        <time>2021-09-26T12:46:32Z</time>
      </trkpt>
      <trkpt lat="43.60336" lon="3.69965">
        <ele>173.9</ele>
        <time>2021-09-26T12:46:42Z</time>
      </trkpt>
      <trkpt lat="43.60322" lon="3.69986">
        <ele>173.5</ele>
        <time>2021-09-26T12:46:52Z</time>
      </trkpt>
      <trkpt lat="43.60298" lon="3.70009">
        <ele>174.3</ele>
        <time>2021-09-26T12:47:02Z</time>
      </trkpt>
      <trkpt lat="43.60307" lon="3.70034">
        <ele>176</ele>
        <time>2021-09-26T12:47:12Z</time>
      </trkpt>
      <trkpt lat="43.60316" lon="3.70055">
        <ele>176.7</ele>
        <time>2021-09-26T12:47:22Z</time>
      </trkpt>
      <trkpt lat="43.60324" lon="3.70074">
        <ele>176.9</ele>
        <time>2021-09-26T12:47:32Z</time>
      </trkpt>
      <trkpt lat="43.60331" lon="3.70091">
        <ele>177.1</ele>
        <time>2021-09-26T12:47:42Z</time>
      </trkpt>
      <trkpt lat="43.60337" lon="3.70107">
        <ele>178</ele>
        <time>2021-09-26T12:47:52Z</time>
      </trkpt>
      <trkpt lat="43.60339" lon="3.70122">
        <ele>179.4</ele>
        <time>2021-09-26T12:48:02Z</time>
      </trkpt>
      <trkpt lat="43.60343" lon="3.70135">
        <ele>180.4</ele>
        <time>2021-09-26T12:48:12Z</time>
      </trkpt>
      <trkpt lat="43.60342" lon="3.70153">
        <ele>182.3</ele>
        <time>2021-09-26T12:48:22Z</time>
      </trkpt>
      <trkpt lat="43.60343" lon="3.7017">
        <ele>183.8</ele>
        <time>2021-09-26T12:48:32Z</time>
      </trkpt>
      <trkpt lat="43.60342" lon="3.70188">
        <ele>184.8</ele>
        <time>2021-09-26T12:48:42Z</time>
      </trkpt>
      <trkpt lat="43.60342" lon="3.70207">
        <ele>185.9</ele>
        <time>2021-09-26T12:48:52Z</time>
      </trkpt>
      <trkpt lat="43.6034" lon="3.70222">
        <ele>186.7</ele>
        <time>2021-09-26T12:49:02Z</time>
      </trkpt>
      <trkpt lat="43.6034" lon="3.70238">
        <ele>187.5</ele>
        <time>2021-09-26T12:49:12Z</time>
      </trkpt>
      <trkpt lat="43.60337" lon="3.70257">
        <ele>188.3</ele>
        <time>2021-09-26T12:49:22Z</time>
      </trkpt>
      <trkpt lat="43.60334" lon="3.70277">
        <ele>188.7</ele>
        <time>2021-09-26T12:49:32Z</time>
      </trkpt>
      <trkpt lat="43.60333" lon="3.70295">
        <ele>189.1</ele>
        <time>2021-09-26T12:49:42Z</time>
      </trkpt>
      <trkpt lat="43.60331" lon="3.70313">
        <ele>189.8</ele>
        <time>2021-09-26T12:49:52Z</time>
      </trkpt>
      <trkpt lat="43.60327" lon="3.70329">
        <ele>190.5</ele>
        <time>2021-09-26T12:50:02Z</time>
      </trkpt>
      <trkpt lat="43.60321" lon="3.70345">
        <ele>190.3</ele>
        <time>2021-09-26T12:50:12Z</time>
      </trkpt>
      <trkpt lat="43.60318" lon="3.70365">
        <ele>189.2</ele>
        <time>2021-09-26T12:50:22Z</time>
      </trkpt>
      <trkpt lat="43.60333" lon="3.7038">
        <ele>188.3</ele>
        <time>2021-09-26T12:50:32Z</time>
      </trkpt>
      <trkpt lat="43.60358" lon="3.704">
        <ele>189.3</ele>
        <time>2021-09-26T12:50:42Z</time>
      </trkpt>
      <trkpt lat="43.60376" lon="3.70416">
        <ele>190.1</ele>
        <time>2021-09-26T12:50:52Z</time>
      </trkpt>
      <trkpt lat="43.60392" lon="3.70431">
        <ele>190.2</ele>
        <time>2021-09-26T12:51:02Z</time>
      </trkpt>
      <trkpt lat="43.60405" lon="3.7044">
        <ele>190.1</ele>
        <time>2021-09-26T12:51:12Z</time>
      </trkpt>
      <trkpt lat="43.60421" lon="3.70423">
        <ele>192.1</ele>
        <time>2021-09-26T12:52:12Z</time>
      </trkpt>
      <trkpt lat="43.60431" lon="3.70411">
        <ele>192.4</ele>
        <time>2021-09-26T12:52:32Z</time>
      </trkpt>
      <trkpt lat="43.60443" lon="3.70403">
        <ele>192.1</ele>
        <time>2021-09-26T12:52:42Z</time>
      </trkpt>
      <trkpt lat="43.60455" lon="3.70392">
        <ele>192</ele>
        <time>2021-09-26T12:52:52Z</time>
      </trkpt>
      <trkpt lat="43.60456" lon="3.70375">
        <ele>192.6</ele>
        <time>2021-09-26T12:53:02Z</time>
      </trkpt>
      <trkpt lat="43.60455" lon="3.70356">
        <ele>193.2</ele>
        <time>2021-09-26T12:53:12Z</time>
      </trkpt>
      <trkpt lat="43.60466" lon="3.70343">
        <ele>193.6</ele>
        <time>2021-09-26T12:53:22Z</time>
      </trkpt>
      <trkpt lat="43.60481" lon="3.70348">
        <ele>193.3</ele>
        <time>2021-09-26T12:53:32Z</time>
      </trkpt>
      <trkpt lat="43.60497" lon="3.70369">
        <ele>191.9</ele>
        <time>2021-09-26T12:53:42Z</time>
      </trkpt>
      <trkpt lat="43.60517" lon="3.70387">
        <ele>189.2</ele>
        <time>2021-09-26T12:53:52Z</time>
      </trkpt>
      <trkpt lat="43.6054" lon="3.70401">
        <ele>187.3</ele>
        <time>2021-09-26T12:54:02Z</time>
      </trkpt>
      <trkpt lat="43.6057" lon="3.70417">
        <ele>186.5</ele>
        <time>2021-09-26T12:54:12Z</time>
      </trkpt>
      <trkpt lat="43.60603" lon="3.70429">
        <ele>186.8</ele>
        <time>2021-09-26T12:54:22Z</time>
      </trkpt>
      <trkpt lat="43.60634" lon="3.7044">
        <ele>188</ele>
        <time>2021-09-26T12:55:22Z</time>
      </trkpt>
      <trkpt lat="43.60645" lon="3.70463">
        <ele>186.7</ele>
        <time>2021-09-26T12:55:42Z</time>
      </trkpt>
      <trkpt lat="43.60661" lon="3.70487">
        <ele>185.1</ele>
        <time>2021-09-26T12:55:52Z</time>
      </trkpt>
      <trkpt lat="43.60679" lon="3.70511">
        <ele>183.3</ele>
        <time>2021-09-26T12:56:02Z</time>
      </trkpt>
      <trkpt lat="43.60696" lon="3.70527">
        <ele>182.1</ele>
        <time>2021-09-26T12:56:12Z</time>
      </trkpt>
      <trkpt lat="43.60714" lon="3.70544">
        <ele>180.6</ele>
        <time>2021-09-26T12:56:22Z</time>
      </trkpt>
      <trkpt lat="43.60729" lon="3.7056">
        <ele>178.9</ele>
        <time>2021-09-26T12:56:32Z</time>
      </trkpt>
      <trkpt lat="43.60733" lon="3.70583">
        <ele>175.8</ele>
        <time>2021-09-26T12:56:42Z</time>
      </trkpt>
      <trkpt lat="43.60741" lon="3.7062">
        <ele>173.2</ele>
        <time>2021-09-26T12:57:02Z</time>
      </trkpt>
      <trkpt lat="43.60764" lon="3.70663">
        <ele>169.6</ele>
        <time>2021-09-26T12:57:52Z</time>
      </trkpt>
      <trkpt lat="43.6078" lon="3.70712">
        <ele>170.4</ele>
        <time>2021-09-26T12:58:12Z</time>
      </trkpt>
      <trkpt lat="43.60819" lon="3.70728">
        <ele>170.6</ele>
        <time>2021-09-26T12:58:22Z</time>
      </trkpt>
      <trkpt lat="43.60812" lon="3.7077">
        <ele>171.8</ele>
        <time>2021-09-26T12:58:32Z</time>
      </trkpt>
      <trkpt lat="43.60811" lon="3.7083">
        <ele>171.2</ele>
        <time>2021-09-26T12:58:42Z</time>
      </trkpt>
      <trkpt lat="43.60817" lon="3.70888">
        <ele>167.9</ele>
        <time>2021-09-26T12:58:52Z</time>
      </trkpt>
      <trkpt lat="43.60815" lon="3.70936">
        <ele>165.2</ele>
        <time>2021-09-26T12:59:02Z</time>
      </trkpt>
      <trkpt lat="43.60806" lon="3.70987">
        <ele>162.6</ele>
        <time>2021-09-26T12:59:12Z</time>
      </trkpt>
      <trkpt lat="43.60795" lon="3.71011">
        <ele>161.9</ele>
        <time>2021-09-26T12:59:22Z</time>
      </trkpt>
      <trkpt lat="43.60775" lon="3.71026">
        <ele>161.9</ele>
        <time>2021-09-26T12:59:42Z</time>
      </trkpt>
      <trkpt lat="43.60767" lon="3.71033">
        <ele>162</ele>
        <time>2021-09-26T12:59:52Z</time>
      </trkpt>
      <trkpt lat="43.60786" lon="3.71027">
        <ele>162.2</ele>
        <time>2021-09-26T13:00:52Z</time>
      </trkpt>
      <trkpt lat="43.60809" lon="3.71008">
        <ele>162.3</ele>
        <time>2021-09-26T13:01:12Z</time>
      </trkpt>
      <trkpt lat="43.60841" lon="3.70993">
        <ele>163.6</ele>
        <time>2021-09-26T13:01:22Z</time>
      </trkpt>
      <trkpt lat="43.60869" lon="3.70981">
        <ele>165</ele>
        <time>2021-09-26T13:01:32Z</time>
      </trkpt>
      <trkpt lat="43.60895" lon="3.70968">
        <ele>166</ele>
        <time>2021-09-26T13:01:42Z</time>
      </trkpt>
      <trkpt lat="43.60923" lon="3.70958">
        <ele>166.6</ele>
        <time>2021-09-26T13:01:52Z</time>
      </trkpt>
      <trkpt lat="43.60952" lon="3.70946">
        <ele>166.5</ele>
        <time>2021-09-26T13:02:02Z</time>
      </trkpt>
      <trkpt lat="43.60981" lon="3.70936">
        <ele>165.9</ele>
        <time>2021-09-26T13:02:12Z</time>
      </trkpt>
      <trkpt lat="43.6101" lon="3.70937">
        <ele>166</ele>
        <time>2021-09-26T13:02:22Z</time>
      </trkpt>
      <trkpt lat="43.61041" lon="3.70946">
        <ele>166.8</ele>
        <time>2021-09-26T13:02:32Z</time>
      </trkpt>
      <trkpt lat="43.61071" lon="3.70953">
        <ele>167</ele>
        <time>2021-09-26T13:02:42Z</time>
      </trkpt>
      <trkpt lat="43.61102" lon="3.70959">
        <ele>168.1</ele>
        <time>2021-09-26T13:02:52Z</time>
      </trkpt>
      <trkpt lat="43.61127" lon="3.70967">
        <ele>169.6</ele>
        <time>2021-09-26T13:03:02Z</time>
      </trkpt>
      <trkpt lat="43.6115" lon="3.7097">
        <ele>170.8</ele>
        <time>2021-09-26T13:03:12Z</time>
      </trkpt>
      <trkpt lat="43.61171" lon="3.70967">
        <ele>172</ele>
        <time>2021-09-26T13:03:22Z</time>
      </trkpt>
      <trkpt lat="43.61194" lon="3.70967">
        <ele>173.2</ele>
        <time>2021-09-26T13:03:32Z</time>
      </trkpt>
      <trkpt lat="43.61218" lon="3.70967">
        <ele>174.4</ele>
        <time>2021-09-26T13:03:42Z</time>
      </trkpt>
      <trkpt lat="43.61241" lon="3.70968">
        <ele>175.5</ele>
        <time>2021-09-26T13:03:52Z</time>
      </trkpt>
      <trkpt lat="43.61262" lon="3.70973">
        <ele>176.9</ele>
        <time>2021-09-26T13:04:02Z</time>
      </trkpt>
      <trkpt lat="43.61282" lon="3.70966">
        <ele>178.4</ele>
        <time>2021-09-26T13:04:12Z</time>
      </trkpt>
      <trkpt lat="43.613" lon="3.7095">
        <ele>179.5</ele>
        <time>2021-09-26T13:04:22Z</time>
      </trkpt>
      <trkpt lat="43.61314" lon="3.7093">
        <ele>180.1</ele>
        <time>2021-09-26T13:04:32Z</time>
      </trkpt>
      <trkpt lat="43.61318" lon="3.709">
        <ele>180.6</ele>
        <time>2021-09-26T13:04:42Z</time>
      </trkpt>
      <trkpt lat="43.61322" lon="3.70875">
        <ele>181.5</ele>
        <time>2021-09-26T13:04:52Z</time>
      </trkpt>
      <trkpt lat="43.61343" lon="3.70887">
        <ele>182.6</ele>
        <time>2021-09-26T13:05:02Z</time>
      </trkpt>
      <trkpt lat="43.61358" lon="3.70895">
        <ele>183.8</ele>
        <time>2021-09-26T13:05:12Z</time>
      </trkpt>
      <trkpt lat="43.61371" lon="3.70871">
        <ele>185.5</ele>
        <time>2021-09-26T13:05:22Z</time>
      </trkpt>
      <trkpt lat="43.61383" lon="3.70855">
        <ele>186.8</ele>
        <time>2021-09-26T13:05:32Z</time>
      </trkpt>
      <trkpt lat="43.61392" lon="3.70842">
        <ele>187.8</ele>
        <time>2021-09-26T13:05:42Z</time>
      </trkpt>
      <trkpt lat="43.614" lon="3.70829">
        <ele>188.8</ele>
        <time>2021-09-26T13:05:52Z</time>
      </trkpt>
      <trkpt lat="43.61408" lon="3.70815">
        <ele>190</ele>
        <time>2021-09-26T13:06:02Z</time>
      </trkpt>
      <trkpt lat="43.61415" lon="3.70801">
        <ele>191</ele>
        <time>2021-09-26T13:06:12Z</time>
      </trkpt>
      <trkpt lat="43.61425" lon="3.70787">
        <ele>191.9</ele>
        <time>2021-09-26T13:06:22Z</time>
      </trkpt>
      <trkpt lat="43.61435" lon="3.70773">
        <ele>192.7</ele>
        <time>2021-09-26T13:06:32Z</time>
      </trkpt>
      <trkpt lat="43.61446" lon="3.70761">
        <ele>193.4</ele>
        <time>2021-09-26T13:06:42Z</time>
      </trkpt>
      <trkpt lat="43.61457" lon="3.70747">
        <ele>194</ele>
        <time>2021-09-26T13:06:52Z</time>
      </trkpt>
      <trkpt lat="43.61467" lon="3.70733">
        <ele>194.5</ele>
        <time>2021-09-26T13:07:02Z</time>
      </trkpt>
      <trkpt lat="43.61483" lon="3.70714">
        <ele>195.1</ele>
        <time>2021-09-26T13:07:12Z</time>
      </trkpt>
      <trkpt lat="43.61503" lon="3.70689">
        <ele>195.7</ele>
        <time>2021-09-26T13:07:22Z</time>
      </trkpt>
      <trkpt lat="43.61525" lon="3.70662">
        <ele>195.8</ele>
        <time>2021-09-26T13:07:32Z</time>
      </trkpt>
      <trkpt lat="43.61553" lon="3.70626">
        <ele>193.7</ele>
        <time>2021-09-26T13:07:42Z</time>
      </trkpt>
      <trkpt lat="43.61586" lon="3.70583">
        <ele>191</ele>
        <time>2021-09-26T13:07:52Z</time>
      </trkpt>
      <trkpt lat="43.61618" lon="3.7055">
        <ele>190.4</ele>
        <time>2021-09-26T13:08:02Z</time>
      </trkpt>
      <trkpt lat="43.61651" lon="3.70532">
        <ele>191.5</ele>
        <time>2021-09-26T13:08:12Z</time>
      </trkpt>
      <trkpt lat="43.61687" lon="3.70514">
        <ele>192.5</ele>
        <time>2021-09-26T13:08:22Z</time>
      </trkpt>
      <trkpt lat="43.61723" lon="3.70489">
        <ele>193.4</ele>
        <time>2021-09-26T13:08:32Z</time>
      </trkpt>
      <trkpt lat="43.6176" lon="3.70463">
        <ele>194.2</ele>
        <time>2021-09-26T13:08:42Z</time>
      </trkpt>
      <trkpt lat="43.61793" lon="3.70441">
        <ele>192</ele>
        <time>2021-09-26T13:08:52Z</time>
      </trkpt>
      <trkpt lat="43.61824" lon="3.70406">
        <ele>190</ele>
        <time>2021-09-26T13:09:02Z</time>
      </trkpt>
      <trkpt lat="43.61854" lon="3.70363">
        <ele>188.2</ele>
        <time>2021-09-26T13:09:12Z</time>
      </trkpt>
      <trkpt lat="43.61879" lon="3.70314">
        <ele>186.6</ele>
        <time>2021-09-26T13:09:22Z</time>
      </trkpt>
      <trkpt lat="43.61909" lon="3.70244">
        <ele>183.6</ele>
        <time>2021-09-26T13:09:32Z</time>
      </trkpt>
      <trkpt lat="43.6194" lon="3.70169">
        <ele>180.9</ele>
        <time>2021-09-26T13:09:42Z</time>
      </trkpt>
      <trkpt lat="43.61965" lon="3.70107">
        <ele>177.9</ele>
        <time>2021-09-26T13:09:52Z</time>
      </trkpt>
      <trkpt lat="43.61988" lon="3.7006">
        <ele>176.2</ele>
        <time>2021-09-26T13:10:02Z</time>
      </trkpt>
      <trkpt lat="43.62011" lon="3.70036">
        <ele>174.9</ele>
        <time>2021-09-26T13:10:12Z</time>
      </trkpt>
      <trkpt lat="43.62058" lon="3.70025">
        <ele>172.4</ele>
        <time>2021-09-26T13:10:22Z</time>
      </trkpt>
      <trkpt lat="43.62115" lon="3.70009">
        <ele>169.6</ele>
        <time>2021-09-26T13:10:32Z</time>
      </trkpt>
      <trkpt lat="43.62176" lon="3.69981">
        <ele>166.7</ele>
        <time>2021-09-26T13:10:42Z</time>
      </trkpt>
      <trkpt lat="43.6224" lon="3.69954">
        <ele>162.7</ele>
        <time>2021-09-26T13:10:52Z</time>
      </trkpt>
      <trkpt lat="43.62285" lon="3.69932">
        <ele>160.5</ele>
        <time>2021-09-26T13:11:02Z</time>
      </trkpt>
      <trkpt lat="43.62324" lon="3.69921">
        <ele>159.4</ele>
        <time>2021-09-26T13:11:12Z</time>
      </trkpt>
      <trkpt lat="43.62371" lon="3.69906">
        <ele>157</ele>
        <time>2021-09-26T13:11:22Z</time>
      </trkpt>
      <trkpt lat="43.62431" lon="3.69882">
        <ele>154.1</ele>
        <time>2021-09-26T13:11:32Z</time>
      </trkpt>
      <trkpt lat="43.62485" lon="3.69898">
        <ele>154.1</ele>
        <time>2021-09-26T13:11:42Z</time>
      </trkpt>
      <trkpt lat="43.6251" lon="3.69937">
        <ele>155.4</ele>
        <time>2021-09-26T13:11:52Z</time>
      </trkpt>
      <trkpt lat="43.62531" lon="3.6997">
        <ele>155.8</ele>
        <time>2021-09-26T13:12:02Z</time>
      </trkpt>
      <trkpt lat="43.62551" lon="3.7">
        <ele>156.2</ele>
        <time>2021-09-26T13:12:12Z</time>
      </trkpt>
      <trkpt lat="43.62569" lon="3.70031">
        <ele>154.9</ele>
        <time>2021-09-26T13:12:22Z</time>
      </trkpt>
      <trkpt lat="43.62592" lon="3.70063">
        <ele>152.7</ele>
        <time>2021-09-26T13:12:32Z</time>
      </trkpt>
      <trkpt lat="43.62631" lon="3.70089">
        <ele>149.1</ele>
        <time>2021-09-26T13:13:02Z</time>
      </trkpt>
      <trkpt lat="43.62641" lon="3.7009">
        <ele>148.3</ele>
        <time>2021-09-26T13:13:22Z</time>
      </trkpt>
      <trkpt lat="43.62664" lon="3.70115">
        <ele>147</ele>
        <time>2021-09-26T13:13:32Z</time>
      </trkpt>
      <trkpt lat="43.62685" lon="3.70142">
        <ele>146.4</ele>
        <time>2021-09-26T13:13:42Z</time>
      </trkpt>
      <trkpt lat="43.62678" lon="3.70187">
        <ele>147.1</ele>
        <time>2021-09-26T13:13:52Z</time>
      </trkpt>
      <trkpt lat="43.62669" lon="3.70232">
        <ele>147.1</ele>
        <time>2021-09-26T13:14:02Z</time>
      </trkpt>
      <trkpt lat="43.62661" lon="3.70276">
        <ele>146.7</ele>
        <time>2021-09-26T13:14:12Z</time>
      </trkpt>
      <trkpt lat="43.62654" lon="3.70315">
        <ele>146.3</ele>
        <time>2021-09-26T13:14:22Z</time>
      </trkpt>
      <trkpt lat="43.62647" lon="3.70352">
        <ele>146.9</ele>
        <time>2021-09-26T13:14:32Z</time>
      </trkpt>
      <trkpt lat="43.6264" lon="3.70387">
        <ele>148.2</ele>
        <time>2021-09-26T13:14:42Z</time>
      </trkpt>
      <trkpt lat="43.62634" lon="3.70426">
        <ele>149.4</ele>
        <time>2021-09-26T13:14:52Z</time>
      </trkpt>
      <trkpt lat="43.62627" lon="3.70464">
        <ele>150.6</ele>
        <time>2021-09-26T13:15:02Z</time>
      </trkpt>
      <trkpt lat="43.62616" lon="3.70497">
        <ele>151.3</ele>
        <time>2021-09-26T13:15:12Z</time>
      </trkpt>
      <trkpt lat="43.6264" lon="3.70491">
        <ele>151.4</ele>
        <time>2021-09-26T13:15:22Z</time>
      </trkpt>
      <trkpt lat="43.62671" lon="3.70475">
        <ele>150.7</ele>
        <time>2021-09-26T13:15:32Z</time>
      </trkpt>
      <trkpt lat="43.62704" lon="3.70454">
        <ele>149.4</ele>
        <time>2021-09-26T13:15:42Z</time>
      </trkpt>
      <trkpt lat="43.6274" lon="3.70432">
        <ele>148.4</ele>
        <time>2021-09-26T13:15:52Z</time>
      </trkpt>
      <trkpt lat="43.62778" lon="3.70407">
        <ele>147.2</ele>
        <time>2021-09-26T13:16:02Z</time>
      </trkpt>
      <trkpt lat="43.62819" lon="3.70382">
        <ele>145.5</ele>
        <time>2021-09-26T13:16:12Z</time>
      </trkpt>
      <trkpt lat="43.62872" lon="3.7035">
        <ele>142.7</ele>
        <time>2021-09-26T13:16:22Z</time>
      </trkpt>
      <trkpt lat="43.62952" lon="3.70321">
        <ele>138.8</ele>
        <time>2021-09-26T13:16:32Z</time>
      </trkpt>
      <trkpt lat="43.63047" lon="3.70313">
        <ele>136.4</ele>
        <time>2021-09-26T13:16:42Z</time>
      </trkpt>
      <trkpt lat="43.63112" lon="3.70313">
        <ele>136.4</ele>
        <time>2021-09-26T13:16:52Z</time>
      </trkpt>
      <trkpt lat="43.63121" lon="3.70285">
        <ele>136.5</ele>
        <time>2021-09-26T13:17:02Z</time>
      </trkpt>
      <trkpt lat="43.63109" lon="3.70232">
        <ele>136</ele>
        <time>2021-09-26T13:17:12Z</time>
      </trkpt>
      <trkpt lat="43.63096" lon="3.70178">
        <ele>133.8</ele>
        <time>2021-09-26T13:17:22Z</time>
      </trkpt>
      <trkpt lat="43.63094" lon="3.70131">
        <ele>133.1</ele>
        <time>2021-09-26T13:17:32Z</time>
      </trkpt>
      <trkpt lat="43.63135" lon="3.70119">
        <ele>133.2</ele>
        <time>2021-09-26T13:17:42Z</time>
      </trkpt>
      <trkpt lat="43.63162" lon="3.70058">
        <ele>131.8</ele>
        <time>2021-09-26T13:17:52Z</time>
      </trkpt>
      <trkpt lat="43.63186" lon="3.70023">
        <ele>133.4</ele>
        <time>2021-09-26T13:18:02Z</time>
      </trkpt>
      <trkpt lat="43.63209" lon="3.70004">
        <ele>135.6</ele>
        <time>2021-09-26T13:18:12Z</time>
      </trkpt>
      <trkpt lat="43.63229" lon="3.69986">
        <ele>137.4</ele>
        <time>2021-09-26T13:18:22Z</time>
      </trkpt>
      <trkpt lat="43.63244" lon="3.6996">
        <ele>138</ele>
        <time>2021-09-26T13:18:32Z</time>
      </trkpt>
      <trkpt lat="43.63262" lon="3.69938">
        <ele>138.7</ele>
        <time>2021-09-26T13:18:42Z</time>
      </trkpt>
      <trkpt lat="43.63283" lon="3.69927">
        <ele>139.8</ele>
        <time>2021-09-26T13:18:52Z</time>
      </trkpt>
      <trkpt lat="43.63302" lon="3.69916">
        <ele>140.7</ele>
        <time>2021-09-26T13:19:02Z</time>
      </trkpt>
      <trkpt lat="43.63319" lon="3.69899">
        <ele>141.5</ele>
        <time>2021-09-26T13:19:12Z</time>
      </trkpt>
      <trkpt lat="43.63338" lon="3.69891">
        <ele>142.3</ele>
        <time>2021-09-26T13:19:22Z</time>
      </trkpt>
      <trkpt lat="43.63344" lon="3.69905">
        <ele>142.6</ele>
        <time>2021-09-26T13:19:32Z</time>
      </trkpt>
      <trkpt lat="43.63358" lon="3.69908">
        <ele>142.5</ele>
        <time>2021-09-26T13:19:42Z</time>
      </trkpt>
      <trkpt lat="43.63354" lon="3.69942">
        <ele>144</ele>
        <time>2021-09-26T13:19:52Z</time>
      </trkpt>
      <trkpt lat="43.63357" lon="3.69976">
        <ele>145.6</ele>
        <time>2021-09-26T13:20:02Z</time>
      </trkpt>
      <trkpt lat="43.63355" lon="3.70016">
        <ele>147.1</ele>
        <time>2021-09-26T13:20:12Z</time>
      </trkpt>
      <trkpt lat="43.63354" lon="3.70057">
        <ele>147.9</ele>
        <time>2021-09-26T13:20:22Z</time>
      </trkpt>
      <trkpt lat="43.63358" lon="3.70098">
        <ele>149.1</ele>
        <time>2021-09-26T13:20:32Z</time>
      </trkpt>
      <trkpt lat="43.6336" lon="3.70133">
        <ele>150.4</ele>
        <time>2021-09-26T13:20:42Z</time>
      </trkpt>
      <trkpt lat="43.63362" lon="3.70167">
        <ele>151.7</ele>
        <time>2021-09-26T13:20:52Z</time>
      </trkpt>
      <trkpt lat="43.6336" lon="3.70199">
        <ele>152.5</ele>
        <time>2021-09-26T13:21:02Z</time>
      </trkpt>
      <trkpt lat="43.63358" lon="3.70232">
        <ele>153.4</ele>
        <time>2021-09-26T13:21:12Z</time>
      </trkpt>
      <trkpt lat="43.63355" lon="3.70267">
        <ele>153.6</ele>
        <time>2021-09-26T13:21:22Z</time>
      </trkpt>
      <trkpt lat="43.63364" lon="3.70303">
        <ele>153.7</ele>
        <time>2021-09-26T13:21:32Z</time>
      </trkpt>
      <trkpt lat="43.63364" lon="3.70348">
        <ele>153.6</ele>
        <time>2021-09-26T13:21:42Z</time>
      </trkpt>
      <trkpt lat="43.63358" lon="3.70395">
        <ele>153.7</ele>
        <time>2021-09-26T13:21:52Z</time>
      </trkpt>
      <trkpt lat="43.63362" lon="3.70443">
        <ele>153.6</ele>
        <time>2021-09-26T13:22:02Z</time>
      </trkpt>
      <trkpt lat="43.63372" lon="3.70487">
        <ele>153.2</ele>
        <time>2021-09-26T13:22:12Z</time>
      </trkpt>
      <trkpt lat="43.63379" lon="3.70541">
        <ele>151.9</ele>
        <time>2021-09-26T13:22:22Z</time>
      </trkpt>
      <trkpt lat="43.63395" lon="3.70596">
        <ele>151.3</ele>
        <time>2021-09-26T13:22:32Z</time>
      </trkpt>
      <trkpt lat="43.63413" lon="3.70653">
        <ele>152.6</ele>
        <time>2021-09-26T13:22:42Z</time>
      </trkpt>
      <trkpt lat="43.63421" lon="3.7071">
        <ele>152.6</ele>
        <time>2021-09-26T13:22:52Z</time>
      </trkpt>
      <trkpt lat="43.63431" lon="3.70761">
        <ele>152.5</ele>
        <time>2021-09-26T13:23:02Z</time>
      </trkpt>
      <trkpt lat="43.63439" lon="3.70814">
        <ele>152.6</ele>
        <time>2021-09-26T13:23:12Z</time>
      </trkpt>
      <trkpt lat="43.63446" lon="3.70867">
        <ele>152.3</ele>
        <time>2021-09-26T13:23:22Z</time>
      </trkpt>
      <trkpt lat="43.63475" lon="3.70894">
        <ele>152.7</ele>
        <time>2021-09-26T13:23:32Z</time>
      </trkpt>
      <trkpt lat="43.6351" lon="3.70915">
        <ele>153</ele>
        <time>2021-09-26T13:23:42Z</time>
      </trkpt>
      <trkpt lat="43.63532" lon="3.70931">
        <ele>153.1</ele>
        <time>2021-09-26T13:23:52Z</time>
      </trkpt>
      <trkpt lat="43.63553" lon="3.70947">
        <ele>153.5</ele>
        <time>2021-09-26T13:24:02Z</time>
      </trkpt>
      <trkpt lat="43.63572" lon="3.70958">
        <ele>153.9</ele>
        <time>2021-09-26T13:24:12Z</time>
      </trkpt>
      <trkpt lat="43.63588" lon="3.7098">
        <ele>154.1</ele>
        <time>2021-09-26T13:24:22Z</time>
      </trkpt>
      <trkpt lat="43.63606" lon="3.71015">
        <ele>153</ele>
        <time>2021-09-26T13:24:32Z</time>
      </trkpt>
      <trkpt lat="43.63617" lon="3.7105">
        <ele>151.8</ele>
        <time>2021-09-26T13:24:42Z</time>
      </trkpt>
      <trkpt lat="43.63613" lon="3.71099">
        <ele>151.8</ele>
        <time>2021-09-26T13:24:52Z</time>
      </trkpt>
      <trkpt lat="43.63615" lon="3.71152">
        <ele>151.3</ele>
        <time>2021-09-26T13:25:02Z</time>
      </trkpt>
      <trkpt lat="43.63628" lon="3.71211">
        <ele>150.8</ele>
        <time>2021-09-26T13:25:12Z</time>
      </trkpt>
      <trkpt lat="43.63651" lon="3.71265">
        <ele>150.7</ele>
        <time>2021-09-26T13:25:22Z</time>
      </trkpt>
      <trkpt lat="43.63677" lon="3.71315">
        <ele>148.8</ele>
        <time>2021-09-26T13:25:32Z</time>
      </trkpt>
      <trkpt lat="43.63694" lon="3.71361">
        <ele>147.6</ele>
        <time>2021-09-26T13:25:42Z</time>
      </trkpt>
      <trkpt lat="43.63686" lon="3.71413">
        <ele>146.5</ele>
        <time>2021-09-26T13:25:52Z</time>
      </trkpt>
      <trkpt lat="43.63659" lon="3.71459">
        <ele>147</ele>
        <time>2021-09-26T13:26:02Z</time>
      </trkpt>
      <trkpt lat="43.6363" lon="3.715">
        <ele>147.6</ele>
        <time>2021-09-26T13:26:12Z</time>
      </trkpt>
      <trkpt lat="43.63607" lon="3.71539">
        <ele>148.6</ele>
        <time>2021-09-26T13:26:22Z</time>
      </trkpt>
      <trkpt lat="43.63585" lon="3.71575">
        <ele>149.7</ele>
        <time>2021-09-26T13:26:32Z</time>
      </trkpt>
      <trkpt lat="43.6357" lon="3.71617">
        <ele>150.4</ele>
        <time>2021-09-26T13:26:42Z</time>
      </trkpt>
      <trkpt lat="43.63555" lon="3.71663">
        <ele>151</ele>
        <time>2021-09-26T13:26:52Z</time>
      </trkpt>
      <trkpt lat="43.63546" lon="3.71709">
        <ele>150.7</ele>
        <time>2021-09-26T13:27:02Z</time>
      </trkpt>
      <trkpt lat="43.63563" lon="3.71735">
        <ele>150.4</ele>
        <time>2021-09-26T13:27:12Z</time>
      </trkpt>
      <trkpt lat="43.63608" lon="3.71763">
        <ele>149.3</ele>
        <time>2021-09-26T13:27:22Z</time>
      </trkpt>
      <trkpt lat="43.63651" lon="3.71799">
        <ele>148.2</ele>
        <time>2021-09-26T13:27:32Z</time>
      </trkpt>
      <trkpt lat="43.63639" lon="3.71843">
        <ele>149.3</ele>
        <time>2021-09-26T13:27:42Z</time>
      </trkpt>
      <trkpt lat="43.63652" lon="3.71878">
        <ele>150.4</ele>
        <time>2021-09-26T13:27:52Z</time>
      </trkpt>
      <trkpt lat="43.63655" lon="3.71913">
        <ele>151.8</ele>
        <time>2021-09-26T13:28:02Z</time>
      </trkpt>
      <trkpt lat="43.63644" lon="3.71941">
        <ele>152.7</ele>
        <time>2021-09-26T13:28:12Z</time>
      </trkpt>
      <trkpt lat="43.63644" lon="3.71971">
        <ele>153.7</ele>
        <time>2021-09-26T13:28:22Z</time>
      </trkpt>
      <trkpt lat="43.6364" lon="3.71999">
        <ele>154.6</ele>
        <time>2021-09-26T13:28:32Z</time>
      </trkpt>
      <trkpt lat="43.63636" lon="3.72029">
        <ele>155.2</ele>
        <time>2021-09-26T13:28:42Z</time>
      </trkpt>
      <trkpt lat="43.63628" lon="3.72057">
        <ele>155.9</ele>
        <time>2021-09-26T13:28:52Z</time>
      </trkpt>
      <trkpt lat="43.63611" lon="3.72069">
        <ele>156.7</ele>
        <time>2021-09-26T13:29:02Z</time>
      </trkpt>
      <trkpt lat="43.63597" lon="3.72086">
        <ele>157.6</ele>
        <time>2021-09-26T13:29:12Z</time>
      </trkpt>
      <trkpt lat="43.6359" lon="3.72107">
        <ele>158.9</ele>
        <time>2021-09-26T13:29:22Z</time>
      </trkpt>
      <trkpt lat="43.6358" lon="3.72131">
        <ele>160.4</ele>
        <time>2021-09-26T13:29:32Z</time>
      </trkpt>
      <trkpt lat="43.63583" lon="3.7216">
        <ele>161.7</ele>
        <time>2021-09-26T13:29:42Z</time>
      </trkpt>
      <trkpt lat="43.6359" lon="3.7219">
        <ele>162.5</ele>
        <time>2021-09-26T13:29:52Z</time>
      </trkpt>
      <trkpt lat="43.63596" lon="3.7222">
        <ele>163.1</ele>
        <time>2021-09-26T13:30:02Z</time>
      </trkpt>
      <trkpt lat="43.63603" lon="3.7225">
        <ele>163.8</ele>
        <time>2021-09-26T13:30:12Z</time>
      </trkpt>
      <trkpt lat="43.63612" lon="3.72278">
        <ele>164.7</ele>
        <time>2021-09-26T13:30:22Z</time>
      </trkpt>
      <trkpt lat="43.63618" lon="3.7231">
        <ele>165.6</ele>
        <time>2021-09-26T13:30:32Z</time>
      </trkpt>
      <trkpt lat="43.63623" lon="3.72341">
        <ele>166.5</ele>
        <time>2021-09-26T13:30:42Z</time>
      </trkpt>
      <trkpt lat="43.63636" lon="3.72378">
        <ele>168</ele>
        <time>2021-09-26T13:30:52Z</time>
      </trkpt>
      <trkpt lat="43.63646" lon="3.72427">
        <ele>169.7</ele>
        <time>2021-09-26T13:31:02Z</time>
      </trkpt>
      <trkpt lat="43.63657" lon="3.72475">
        <ele>168.8</ele>
        <time>2021-09-26T13:31:12Z</time>
      </trkpt>
      <trkpt lat="43.63668" lon="3.7253">
        <ele>167.5</ele>
        <time>2021-09-26T13:31:22Z</time>
      </trkpt>
      <trkpt lat="43.63668" lon="3.7259">
        <ele>166.8</ele>
        <time>2021-09-26T13:31:32Z</time>
      </trkpt>
      <trkpt lat="43.63668" lon="3.72644">
        <ele>166.1</ele>
        <time>2021-09-26T13:31:42Z</time>
      </trkpt>
      <trkpt lat="43.6367" lon="3.72703">
        <ele>164.3</ele>
        <time>2021-09-26T13:31:52Z</time>
      </trkpt>
      <trkpt lat="43.63671" lon="3.72763">
        <ele>162.6</ele>
        <time>2021-09-26T13:32:02Z</time>
      </trkpt>
      <trkpt lat="43.63662" lon="3.72829">
        <ele>163.9</ele>
        <time>2021-09-26T13:32:12Z</time>
      </trkpt>
      <trkpt lat="43.63655" lon="3.72893">
        <ele>165.6</ele>
        <time>2021-09-26T13:32:22Z</time>
      </trkpt>
      <trkpt lat="43.63651" lon="3.7295">
        <ele>167.3</ele>
        <time>2021-09-26T13:32:32Z</time>
      </trkpt>
      <trkpt lat="43.63647" lon="3.72995">
        <ele>168.6</ele>
        <time>2021-09-26T13:32:42Z</time>
      </trkpt>
      <trkpt lat="43.63644" lon="3.73036">
        <ele>168.5</ele>
        <time>2021-09-26T13:32:52Z</time>
      </trkpt>
      <trkpt lat="43.63641" lon="3.73084">
        <ele>168.5</ele>
        <time>2021-09-26T13:33:02Z</time>
      </trkpt>
      <trkpt lat="43.63635" lon="3.73114">
        <ele>169</ele>
        <time>2021-09-26T13:33:12Z</time>
      </trkpt>
      <trkpt lat="43.63631" lon="3.73147">
        <ele>169.5</ele>
        <time>2021-09-26T13:33:22Z</time>
      </trkpt>
      <trkpt lat="43.6363" lon="3.73229">
        <ele>169.7</ele>
        <time>2021-09-26T13:33:32Z</time>
      </trkpt>
      <trkpt lat="43.63629" lon="3.73292">
        <ele>170.4</ele>
        <time>2021-09-26T13:33:42Z</time>
      </trkpt>
      <trkpt lat="43.63642" lon="3.73368">
        <ele>170.7</ele>
        <time>2021-09-26T13:33:52Z</time>
      </trkpt>
      <trkpt lat="43.63648" lon="3.73414">
        <ele>171.9</ele>
        <time>2021-09-26T13:34:02Z</time>
      </trkpt>
      <trkpt lat="43.63651" lon="3.73471">
        <ele>172.8</ele>
        <time>2021-09-26T13:34:12Z</time>
      </trkpt>
      <trkpt lat="43.63656" lon="3.73511">
        <ele>173.2</ele>
        <time>2021-09-26T13:34:22Z</time>
      </trkpt>
      <trkpt lat="43.6366" lon="3.73563">
        <ele>174.1</ele>
        <time>2021-09-26T13:34:32Z</time>
      </trkpt>
      <trkpt lat="43.63674" lon="3.73629">
        <ele>173.5</ele>
        <time>2021-09-26T13:34:42Z</time>
      </trkpt>
      <trkpt lat="43.63683" lon="3.73692">
        <ele>171.9</ele>
        <time>2021-09-26T13:34:52Z</time>
      </trkpt>
      <trkpt lat="43.63697" lon="3.73761">
        <ele>167.9</ele>
        <time>2021-09-26T13:35:02Z</time>
      </trkpt>
      <trkpt lat="43.63706" lon="3.73845">
        <ele>166.3</ele>
        <time>2021-09-26T13:35:12Z</time>
      </trkpt>
      <trkpt lat="43.63708" lon="3.73911">
        <ele>164.7</ele>
        <time>2021-09-26T13:35:22Z</time>
      </trkpt>
      <trkpt lat="43.63712" lon="3.73983">
        <ele>164.5</ele>
        <time>2021-09-26T13:35:32Z</time>
      </trkpt>
      <trkpt lat="43.63713" lon="3.74047">
        <ele>164</ele>
        <time>2021-09-26T13:35:42Z</time>
      </trkpt>
      <trkpt lat="43.63717" lon="3.74132">
        <ele>163.8</ele>
        <time>2021-09-26T13:35:52Z</time>
      </trkpt>
      <trkpt lat="43.63712" lon="3.74165">
        <ele>165.4</ele>
        <time>2021-09-26T13:36:02Z</time>
      </trkpt>
      <trkpt lat="43.63726" lon="3.74213">
        <ele>164.8</ele>
        <time>2021-09-26T13:36:12Z</time>
      </trkpt>
      <trkpt lat="43.63733" lon="3.7425">
        <ele>165.2</ele>
        <time>2021-09-26T13:36:22Z</time>
      </trkpt>
      <trkpt lat="43.63746" lon="3.74281">
        <ele>164.6</ele>
        <time>2021-09-26T13:36:32Z</time>
      </trkpt>
      <trkpt lat="43.63748" lon="3.74352">
        <ele>166.5</ele>
        <time>2021-09-26T13:36:42Z</time>
      </trkpt>
      <trkpt lat="43.63761" lon="3.74389">
        <ele>165.5</ele>
        <time>2021-09-26T13:36:52Z</time>
      </trkpt>
      <trkpt lat="43.63799" lon="3.74396">
        <ele>161.5</ele>
        <time>2021-09-26T13:37:02Z</time>
      </trkpt>
      <trkpt lat="43.63844" lon="3.74395">
        <ele>157.4</ele>
        <time>2021-09-26T13:37:12Z</time>
      </trkpt>
      <trkpt lat="43.63886" lon="3.74371">
        <ele>156.3</ele>
        <time>2021-09-26T13:37:22Z</time>
      </trkpt>
      <trkpt lat="43.63917" lon="3.74367">
        <ele>155</ele>
        <time>2021-09-26T13:37:32Z</time>
      </trkpt>
      <trkpt lat="43.63908" lon="3.74388">
        <ele>155.3</ele>
        <time>2021-09-26T13:37:42Z</time>
      </trkpt>
      <trkpt lat="43.63905" lon="3.74439">
        <ele>154.8</ele>
        <time>2021-09-26T13:37:52Z</time>
      </trkpt>
      <trkpt lat="43.63907" lon="3.74494">
        <ele>153.6</ele>
        <time>2021-09-26T13:38:02Z</time>
      </trkpt>
      <trkpt lat="43.63915" lon="3.74548">
        <ele>154.3</ele>
        <time>2021-09-26T13:38:12Z</time>
      </trkpt>
      <trkpt lat="43.63929" lon="3.74599">
        <ele>154.7</ele>
        <time>2021-09-26T13:38:22Z</time>
      </trkpt>
      <trkpt lat="43.63938" lon="3.74654">
        <ele>154.4</ele>
        <time>2021-09-26T13:38:32Z</time>
      </trkpt>
      <trkpt lat="43.63944" lon="3.74709">
        <ele>154.7</ele>
        <time>2021-09-26T13:38:42Z</time>
      </trkpt>
      <trkpt lat="43.63952" lon="3.74755">
        <ele>154.9</ele>
        <time>2021-09-26T13:38:52Z</time>
      </trkpt>
      <trkpt lat="43.63959" lon="3.74803">
        <ele>154.8</ele>
        <time>2021-09-26T13:39:02Z</time>
      </trkpt>
      <trkpt lat="43.63969" lon="3.74845">
        <ele>154.3</ele>
        <time>2021-09-26T13:39:12Z</time>
      </trkpt>
      <trkpt lat="43.63968" lon="3.74889">
        <ele>154.7</ele>
        <time>2021-09-26T13:39:22Z</time>
      </trkpt>
      <trkpt lat="43.63988" lon="3.74927">
        <ele>153.7</ele>
        <time>2021-09-26T13:39:32Z</time>
      </trkpt>
      <trkpt lat="43.6401" lon="3.74962">
        <ele>152.2</ele>
        <time>2021-09-26T13:39:42Z</time>
      </trkpt>
      <trkpt lat="43.64034" lon="3.74995">
        <ele>150.5</ele>
        <time>2021-09-26T13:39:52Z</time>
      </trkpt>
      <trkpt lat="43.64074" lon="3.75035">
        <ele>148.7</ele>
        <time>2021-09-26T13:40:02Z</time>
      </trkpt>
      <trkpt lat="43.6411" lon="3.75105">
        <ele>148.1</ele>
        <time>2021-09-26T13:40:12Z</time>
      </trkpt>
      <trkpt lat="43.64142" lon="3.75177">
        <ele>145.6</ele>
        <time>2021-09-26T13:40:22Z</time>
      </trkpt>
      <trkpt lat="43.64183" lon="3.75249">
        <ele>143</ele>
        <time>2021-09-26T13:40:32Z</time>
      </trkpt>
      <trkpt lat="43.64219" lon="3.75324">
        <ele>141.2</ele>
        <time>2021-09-26T13:40:42Z</time>
      </trkpt>
      <trkpt lat="43.64241" lon="3.75401">
        <ele>139.7</ele>
        <time>2021-09-26T13:40:52Z</time>
      </trkpt>
      <trkpt lat="43.64255" lon="3.75477">
        <ele>139.8</ele>
        <time>2021-09-26T13:41:02Z</time>
      </trkpt>
      <trkpt lat="43.64279" lon="3.75496">
        <ele>140.4</ele>
        <time>2021-09-26T13:41:12Z</time>
      </trkpt>
      <trkpt lat="43.64294" lon="3.75509">
        <ele>140.2</ele>
        <time>2021-09-26T13:41:32Z</time>
      </trkpt>
      <trkpt lat="43.64317" lon="3.75528">
        <ele>139.8</ele>
        <time>2021-09-26T13:41:42Z</time>
      </trkpt>
      <trkpt lat="43.64342" lon="3.75549">
        <ele>139.5</ele>
        <time>2021-09-26T13:41:52Z</time>
      </trkpt>
      <trkpt lat="43.64367" lon="3.75558">
        <ele>139.8</ele>
        <time>2021-09-26T13:42:02Z</time>
      </trkpt>
      <trkpt lat="43.64389" lon="3.75569">
        <ele>140</ele>
        <time>2021-09-26T13:42:12Z</time>
      </trkpt>
      <trkpt lat="43.64418" lon="3.75581">
        <ele>140.2</ele>
        <time>2021-09-26T13:42:22Z</time>
      </trkpt>
      <trkpt lat="43.64447" lon="3.75599">
        <ele>140.8</ele>
        <time>2021-09-26T13:42:32Z</time>
      </trkpt>
      <trkpt lat="43.64476" lon="3.75629">
        <ele>141.2</ele>
        <time>2021-09-26T13:42:42Z</time>
      </trkpt>
      <trkpt lat="43.64505" lon="3.75655">
        <ele>141.6</ele>
        <time>2021-09-26T13:42:52Z</time>
      </trkpt>
      <trkpt lat="43.64523" lon="3.75695">
        <ele>142.3</ele>
        <time>2021-09-26T13:43:02Z</time>
      </trkpt>
      <trkpt lat="43.64529" lon="3.75747">
        <ele>142.4</ele>
        <time>2021-09-26T13:43:12Z</time>
      </trkpt>
      <trkpt lat="43.64547" lon="3.75782">
        <ele>143.4</ele>
        <time>2021-09-26T13:43:22Z</time>
      </trkpt>
      <trkpt lat="43.64563" lon="3.7582">
        <ele>143.8</ele>
        <time>2021-09-26T13:43:32Z</time>
      </trkpt>
      <trkpt lat="43.64573" lon="3.75865">
        <ele>143.8</ele>
        <time>2021-09-26T13:43:42Z</time>
      </trkpt>
      <trkpt lat="43.64579" lon="3.75923">
        <ele>143.7</ele>
        <time>2021-09-26T13:43:52Z</time>
      </trkpt>
      <trkpt lat="43.64584" lon="3.75984">
        <ele>142.4</ele>
        <time>2021-09-26T13:44:02Z</time>
      </trkpt>
      <trkpt lat="43.6459" lon="3.76045">
        <ele>141.5</ele>
        <time>2021-09-26T13:44:12Z</time>
      </trkpt>
      <trkpt lat="43.64595" lon="3.76106">
        <ele>141.5</ele>
        <time>2021-09-26T13:44:22Z</time>
      </trkpt>
      <trkpt lat="43.646" lon="3.76163">
        <ele>142.7</ele>
        <time>2021-09-26T13:44:32Z</time>
      </trkpt>
      <trkpt lat="43.64605" lon="3.76222">
        <ele>142.7</ele>
        <time>2021-09-26T13:44:42Z</time>
      </trkpt>
      <trkpt lat="43.64611" lon="3.76278">
        <ele>142.1</ele>
        <time>2021-09-26T13:44:52Z</time>
      </trkpt>
      <trkpt lat="43.64615" lon="3.76327">
        <ele>141.1</ele>
        <time>2021-09-26T13:45:02Z</time>
      </trkpt>
      <trkpt lat="43.64619" lon="3.76375">
        <ele>140</ele>
        <time>2021-09-26T13:45:12Z</time>
      </trkpt>
      <trkpt lat="43.64624" lon="3.76425">
        <ele>139</ele>
        <time>2021-09-26T13:45:22Z</time>
      </trkpt>
      <trkpt lat="43.64613" lon="3.76469">
        <ele>138.8</ele>
        <time>2021-09-26T13:45:32Z</time>
      </trkpt>
      <trkpt lat="43.64601" lon="3.76518">
        <ele>138.2</ele>
        <time>2021-09-26T13:45:42Z</time>
      </trkpt>
      <trkpt lat="43.6459" lon="3.76567">
        <ele>136.6</ele>
        <time>2021-09-26T13:45:52Z</time>
      </trkpt>
      <trkpt lat="43.64594" lon="3.76625">
        <ele>136</ele>
        <time>2021-09-26T13:46:02Z</time>
      </trkpt>
      <trkpt lat="43.64626" lon="3.76641">
        <ele>136</ele>
        <time>2021-09-26T13:46:12Z</time>
      </trkpt>
      <trkpt lat="43.64666" lon="3.76651">
        <ele>136</ele>
        <time>2021-09-26T13:46:22Z</time>
      </trkpt>
      <trkpt lat="43.64676" lon="3.76673">
        <ele>136.9</ele>
        <time>2021-09-26T13:46:32Z</time>
      </trkpt>
      <trkpt lat="43.64668" lon="3.76716">
        <ele>136.1</ele>
        <time>2021-09-26T13:46:42Z</time>
      </trkpt>
      <trkpt lat="43.64661" lon="3.76766">
        <ele>135.5</ele>
        <time>2021-09-26T13:46:52Z</time>
      </trkpt>
      <trkpt lat="43.64666" lon="3.76808">
        <ele>134.6</ele>
        <time>2021-09-26T13:47:02Z</time>
      </trkpt>
      <trkpt lat="43.64668" lon="3.76858">
        <ele>134.4</ele>
        <time>2021-09-26T13:47:12Z</time>
      </trkpt>
      <trkpt lat="43.6467" lon="3.76912">
        <ele>135.3</ele>
        <time>2021-09-26T13:47:22Z</time>
      </trkpt>
      <trkpt lat="43.64673" lon="3.7696">
        <ele>136.2</ele>
        <time>2021-09-26T13:47:32Z</time>
      </trkpt>
      <trkpt lat="43.64682" lon="3.76999">
        <ele>137.6</ele>
        <time>2021-09-26T13:47:42Z</time>
      </trkpt>
      <trkpt lat="43.64689" lon="3.77033">
        <ele>138.6</ele>
        <time>2021-09-26T13:47:52Z</time>
      </trkpt>
      <trkpt lat="43.64697" lon="3.77057">
        <ele>139.5</ele>
        <time>2021-09-26T13:48:02Z</time>
      </trkpt>
      <trkpt lat="43.64704" lon="3.77084">
        <ele>140.1</ele>
        <time>2021-09-26T13:48:12Z</time>
      </trkpt>
      <trkpt lat="43.64685" lon="3.77097">
        <ele>138.1</ele>
        <time>2021-09-26T13:48:22Z</time>
      </trkpt>
      <trkpt lat="43.64653" lon="3.77106">
        <ele>135.3</ele>
        <time>2021-09-26T13:48:32Z</time>
      </trkpt>
      <trkpt lat="43.64648" lon="3.77161">
        <ele>133.5</ele>
        <time>2021-09-26T13:48:42Z</time>
      </trkpt>
      <trkpt lat="43.64661" lon="3.77234">
        <ele>130</ele>
        <time>2021-09-26T13:48:52Z</time>
      </trkpt>
      <trkpt lat="43.64681" lon="3.77326">
        <ele>123.9</ele>
        <time>2021-09-26T13:49:02Z</time>
      </trkpt>
      <trkpt lat="43.64688" lon="3.77423">
        <ele>119.2</ele>
        <time>2021-09-26T13:49:12Z</time>
      </trkpt>
      <trkpt lat="43.64695" lon="3.77483">
        <ele>114</ele>
        <time>2021-09-26T13:49:22Z</time>
      </trkpt>
      <trkpt lat="43.64704" lon="3.77545">
        <ele>111.2</ele>
        <time>2021-09-26T13:49:32Z</time>
      </trkpt>
      <trkpt lat="43.64721" lon="3.77596">
        <ele>109.4</ele>
        <time>2021-09-26T13:49:42Z</time>
      </trkpt>
      <trkpt lat="43.64743" lon="3.77646">
        <ele>107.9</ele>
        <time>2021-09-26T13:49:52Z</time>
      </trkpt>
      <trkpt lat="43.64769" lon="3.77687">
        <ele>108.2</ele>
        <time>2021-09-26T13:50:02Z</time>
      </trkpt>
      <trkpt lat="43.64791" lon="3.7771">
        <ele>109.5</ele>
        <time>2021-09-26T13:50:12Z</time>
      </trkpt>
      <trkpt lat="43.64818" lon="3.77725">
        <ele>109.3</ele>
        <time>2021-09-26T13:50:22Z</time>
      </trkpt>
      <trkpt lat="43.64821" lon="3.77742">
        <ele>111</ele>
        <time>2021-09-26T13:50:32Z</time>
      </trkpt>
      <trkpt lat="43.64833" lon="3.77766">
        <ele>111.8</ele>
        <time>2021-09-26T13:50:52Z</time>
      </trkpt>
      <trkpt lat="43.64841" lon="3.7779">
        <ele>112.6</ele>
        <time>2021-09-26T13:51:02Z</time>
      </trkpt>
      <trkpt lat="43.64846" lon="3.77811">
        <ele>113.5</ele>
        <time>2021-09-26T13:51:12Z</time>
      </trkpt>
      <trkpt lat="43.64861" lon="3.77874">
        <ele>112.5</ele>
        <time>2021-09-26T13:51:22Z</time>
      </trkpt>
      <trkpt lat="43.64891" lon="3.77963">
        <ele>105.9</ele>
        <time>2021-09-26T13:51:32Z</time>
      </trkpt>
      <trkpt lat="43.64916" lon="3.78054">
        <ele>98.2</ele>
        <time>2021-09-26T13:51:42Z</time>
      </trkpt>
      <trkpt lat="43.64932" lon="3.78129">
        <ele>99</ele>
        <time>2021-09-26T13:51:52Z</time>
      </trkpt>
      <trkpt lat="43.64964" lon="3.78198">
        <ele>96.6</ele>
        <time>2021-09-26T13:52:02Z</time>
      </trkpt>
      <trkpt lat="43.65002" lon="3.78269">
        <ele>89.5</ele>
        <time>2021-09-26T13:52:12Z</time>
      </trkpt>
      <trkpt lat="43.6502" lon="3.78308">
        <ele>89</ele>
        <time>2021-09-26T13:52:22Z</time>
      </trkpt>
      <trkpt lat="43.65057" lon="3.78376">
        <ele>85.5</ele>
        <time>2021-09-26T13:52:32Z</time>
      </trkpt>
      <trkpt lat="43.651" lon="3.78449">
        <ele>80</ele>
        <time>2021-09-26T13:52:42Z</time>
      </trkpt>
      <trkpt lat="43.65122" lon="3.78512">
        <ele>77.8</ele>
        <time>2021-09-26T13:52:52Z</time>
      </trkpt>
      <trkpt lat="43.65135" lon="3.78602">
        <ele>76.4</ele>
        <time>2021-09-26T13:53:02Z</time>
      </trkpt>
      <trkpt lat="43.65134" lon="3.78657">
        <ele>76</ele>
        <time>2021-09-26T13:53:12Z</time>
      </trkpt>
      <trkpt lat="43.65139" lon="3.78727">
        <ele>72.6</ele>
        <time>2021-09-26T13:53:22Z</time>
      </trkpt>
      <trkpt lat="43.65144" lon="3.78797">
        <ele>67.4</ele>
        <time>2021-09-26T13:53:32Z</time>
      </trkpt>
      <trkpt lat="43.65147" lon="3.78842">
        <ele>64</ele>
        <time>2021-09-26T13:53:42Z</time>
      </trkpt>
      <trkpt lat="43.65118" lon="3.78882">
        <ele>63.7</ele>
        <time>2021-09-26T13:53:52Z</time>
      </trkpt>
      <trkpt lat="43.65087" lon="3.78926">
        <ele>62.9</ele>
        <time>2021-09-26T13:54:02Z</time>
      </trkpt>
      <trkpt lat="43.65064" lon="3.7896">
        <ele>63.5</ele>
        <time>2021-09-26T13:54:12Z</time>
      </trkpt>
      <trkpt lat="43.65035" lon="3.78979">
        <ele>63.4</ele>
        <time>2021-09-26T13:54:22Z</time>
      </trkpt>
      <trkpt lat="43.6501" lon="3.78978">
        <ele>63.7</ele>
        <time>2021-09-26T13:54:32Z</time>
      </trkpt>
      <trkpt lat="43.64983" lon="3.7899">
        <ele>63.8</ele>
        <time>2021-09-26T13:54:42Z</time>
      </trkpt>
      <trkpt lat="43.64952" lon="3.79001">
        <ele>64.3</ele>
        <time>2021-09-26T13:54:52Z</time>
      </trkpt>
      <trkpt lat="43.64927" lon="3.79019">
        <ele>64.3</ele>
        <time>2021-09-26T13:55:02Z</time>
      </trkpt>
      <trkpt lat="43.64899" lon="3.79032">
        <ele>65.7</ele>
        <time>2021-09-26T13:55:12Z</time>
      </trkpt>
      <trkpt lat="43.64864" lon="3.79067">
        <ele>65.2</ele>
        <time>2021-09-26T13:55:22Z</time>
      </trkpt>
      <trkpt lat="43.64835" lon="3.79093">
        <ele>64.4</ele>
        <time>2021-09-26T13:55:32Z</time>
      </trkpt>
      <trkpt lat="43.64805" lon="3.79121">
        <ele>68.6</ele>
        <time>2021-09-26T13:55:42Z</time>
      </trkpt>
      <trkpt lat="43.64776" lon="3.79136">
        <ele>72.5</ele>
        <time>2021-09-26T13:55:52Z</time>
      </trkpt>
      <trkpt lat="43.64742" lon="3.79167">
        <ele>74.5</ele>
        <time>2021-09-26T13:56:02Z</time>
      </trkpt>
      <trkpt lat="43.64708" lon="3.79189">
        <ele>77</ele>
        <time>2021-09-26T13:56:12Z</time>
      </trkpt>
      <trkpt lat="43.64698" lon="3.79229">
        <ele>71.4</ele>
        <time>2021-09-26T13:56:42Z</time>
      </trkpt>
      <trkpt lat="43.64694" lon="3.79275">
        <ele>65.6</ele>
        <time>2021-09-26T13:57:02Z</time>
      </trkpt>
      <trkpt lat="43.64668" lon="3.79298">
        <ele>65.5</ele>
        <time>2021-09-26T13:57:12Z</time>
      </trkpt>
      <trkpt lat="43.64655" lon="3.79338">
        <ele>63.7</ele>
        <time>2021-09-26T13:57:22Z</time>
      </trkpt>
      <trkpt lat="43.64635" lon="3.79382">
        <ele>63.9</ele>
        <time>2021-09-26T13:57:32Z</time>
      </trkpt>
      <trkpt lat="43.64605" lon="3.79431">
        <ele>61.6</ele>
        <time>2021-09-26T13:57:42Z</time>
      </trkpt>
      <trkpt lat="43.646" lon="3.79458">
        <ele>59.3</ele>
        <time>2021-09-26T13:57:52Z</time>
      </trkpt>
      <trkpt lat="43.64594" lon="3.79489">
        <ele>56.3</ele>
        <time>2021-09-26T13:58:02Z</time>
      </trkpt>
      <trkpt lat="43.64576" lon="3.79538">
        <ele>55.2</ele>
        <time>2021-09-26T13:58:12Z</time>
      </trkpt>
      <trkpt lat="43.64563" lon="3.79592">
        <ele>55.5</ele>
        <time>2021-09-26T13:58:22Z</time>
      </trkpt>
      <trkpt lat="43.64545" lon="3.79639">
        <ele>55.4</ele>
        <time>2021-09-26T13:58:32Z</time>
      </trkpt>
      <trkpt lat="43.64525" lon="3.79682">
        <ele>54.7</ele>
        <time>2021-09-26T13:58:42Z</time>
      </trkpt>
      <trkpt lat="43.64507" lon="3.79721">
        <ele>54.3</ele>
        <time>2021-09-26T13:58:52Z</time>
      </trkpt>
      <trkpt lat="43.64481" lon="3.79751">
        <ele>53.8</ele>
        <time>2021-09-26T13:59:02Z</time>
      </trkpt>
      <trkpt lat="43.64455" lon="3.7977">
        <ele>53.8</ele>
        <time>2021-09-26T13:59:12Z</time>
      </trkpt>
      <trkpt lat="43.64417" lon="3.79781">
        <ele>53.4</ele>
        <time>2021-09-26T13:59:22Z</time>
      </trkpt>
      <trkpt lat="43.6438" lon="3.79776">
        <ele>54.2</ele>
        <time>2021-09-26T13:59:32Z</time>
      </trkpt>
      <trkpt lat="43.6434" lon="3.79792">
        <ele>54.9</ele>
        <time>2021-09-26T13:59:42Z</time>
      </trkpt>
      <trkpt lat="43.64306" lon="3.79813">
        <ele>55</ele>
        <time>2021-09-26T13:59:52Z</time>
      </trkpt>
      <trkpt lat="43.64269" lon="3.79832">
        <ele>54.8</ele>
        <time>2021-09-26T14:00:02Z</time>
      </trkpt>
      <trkpt lat="43.64235" lon="3.79853">
        <ele>56</ele>
        <time>2021-09-26T14:00:12Z</time>
      </trkpt>
      <trkpt lat="43.64217" lon="3.79895">
        <ele>56.8</ele>
        <time>2021-09-26T14:00:22Z</time>
      </trkpt>
      <trkpt lat="43.64177" lon="3.79909">
        <ele>58.7</ele>
        <time>2021-09-26T14:00:32Z</time>
      </trkpt>
      <trkpt lat="43.64139" lon="3.79936">
        <ele>62.5</ele>
        <time>2021-09-26T14:00:42Z</time>
      </trkpt>
      <trkpt lat="43.64097" lon="3.7997">
        <ele>64.5</ele>
        <time>2021-09-26T14:00:52Z</time>
      </trkpt>
      <trkpt lat="43.64055" lon="3.8">
        <ele>63.3</ele>
        <time>2021-09-26T14:01:02Z</time>
      </trkpt>
      <trkpt lat="43.64019" lon="3.80028">
        <ele>65.7</ele>
        <time>2021-09-26T14:01:12Z</time>
      </trkpt>
      <trkpt lat="43.63979" lon="3.80055">
        <ele>65.5</ele>
        <time>2021-09-26T14:01:22Z</time>
      </trkpt>
      <trkpt lat="43.63945" lon="3.80077">
        <ele>63.7</ele>
        <time>2021-09-26T14:01:32Z</time>
      </trkpt>
      <trkpt lat="43.63912" lon="3.80093">
        <ele>62</ele>
        <time>2021-09-26T14:01:42Z</time>
      </trkpt>
      <trkpt lat="43.63883" lon="3.80107">
        <ele>61.5</ele>
        <time>2021-09-26T14:01:52Z</time>
      </trkpt>
      <trkpt lat="43.63855" lon="3.80131">
        <ele>60</ele>
        <time>2021-09-26T14:02:02Z</time>
      </trkpt>
      <trkpt lat="43.63819" lon="3.80161">
        <ele>57.8</ele>
        <time>2021-09-26T14:02:12Z</time>
      </trkpt>
      <trkpt lat="43.6379" lon="3.80176">
        <ele>59.3</ele>
        <time>2021-09-26T14:02:22Z</time>
      </trkpt>
      <trkpt lat="43.63769" lon="3.80186">
        <ele>60.9</ele>
        <time>2021-09-26T14:02:32Z</time>
      </trkpt>
      <trkpt lat="43.63771" lon="3.80234">
        <ele>62.8</ele>
        <time>2021-09-26T14:02:42Z</time>
      </trkpt>
      <trkpt lat="43.63774" lon="3.80282">
        <ele>64</ele>
        <time>2021-09-26T14:02:52Z</time>
      </trkpt>
      <trkpt lat="43.63789" lon="3.80328">
        <ele>62.4</ele>
        <time>2021-09-26T14:03:02Z</time>
      </trkpt>
      <trkpt lat="43.63807" lon="3.8038">
        <ele>60.3</ele>
        <time>2021-09-26T14:03:12Z</time>
      </trkpt>
      <trkpt lat="43.63834" lon="3.80397">
        <ele>54.1</ele>
        <time>2021-09-26T14:03:22Z</time>
      </trkpt>
      <trkpt lat="43.63856" lon="3.80431">
        <ele>56.6</ele>
        <time>2021-09-26T14:03:32Z</time>
      </trkpt>
      <trkpt lat="43.63879" lon="3.80467">
        <ele>58.8</ele>
        <time>2021-09-26T14:03:42Z</time>
      </trkpt>
      <trkpt lat="43.63883" lon="3.80502">
        <ele>59.1</ele>
        <time>2021-09-26T14:03:52Z</time>
      </trkpt>
      <trkpt lat="43.6388" lon="3.80511">
        <ele>58.8</ele>
        <time>2021-09-26T14:04:02Z</time>
      </trkpt>
      <trkpt lat="43.63882" lon="3.80536">
        <ele>58.2</ele>
        <time>2021-09-26T14:04:12Z</time>
      </trkpt>
      <trkpt lat="43.63881" lon="3.80563">
        <ele>57.5</ele>
        <time>2021-09-26T14:04:22Z</time>
      </trkpt>
      <trkpt lat="43.63874" lon="3.80595">
        <ele>56.9</ele>
        <time>2021-09-26T14:04:32Z</time>
      </trkpt>
      <trkpt lat="43.63871" lon="3.80618">
        <ele>56.8</ele>
        <time>2021-09-26T14:04:42Z</time>
      </trkpt>
      <trkpt lat="43.63867" lon="3.80656">
        <ele>56.6</ele>
        <time>2021-09-26T14:04:52Z</time>
      </trkpt>
      <trkpt lat="43.63877" lon="3.80691">
        <ele>56.7</ele>
        <time>2021-09-26T14:05:02Z</time>
      </trkpt>
      <trkpt lat="43.63873" lon="3.8072">
        <ele>56.8</ele>
        <time>2021-09-26T14:06:42Z</time>
      </trkpt>
      <trkpt lat="43.63866" lon="3.8075">
        <ele>56.6</ele>
        <time>2021-09-26T14:07:32Z</time>
      </trkpt>
      <trkpt lat="43.63855" lon="3.80773">
        <ele>58.7</ele>
        <time>2021-09-26T14:07:52Z</time>
      </trkpt>
      <trkpt lat="43.6384" lon="3.80795">
        <ele>59.9</ele>
        <time>2021-09-26T14:08:02Z</time>
      </trkpt>
      <trkpt lat="43.63834" lon="3.80805">
        <ele>60.3</ele>
        <time>2021-09-26T14:08:12Z</time>
      </trkpt>
      <trkpt lat="43.63832" lon="3.80818">
        <ele>61.4</ele>
        <time>2021-09-26T14:08:22Z</time>
      </trkpt>
      <trkpt lat="43.63821" lon="3.80828">
        <ele>61.5</ele>
        <time>2021-09-26T14:08:32Z</time>
      </trkpt>
      <trkpt lat="43.63798" lon="3.80836">
        <ele>60.7</ele>
        <time>2021-09-26T14:08:52Z</time>
      </trkpt>
      <trkpt lat="43.63767" lon="3.80847">
        <ele>60.5</ele>
        <time>2021-09-26T14:09:02Z</time>
      </trkpt>
      <trkpt lat="43.63734" lon="3.80857">
        <ele>59.9</ele>
        <time>2021-09-26T14:09:12Z</time>
      </trkpt>
      <trkpt lat="43.63696" lon="3.80857">
        <ele>57.1</ele>
        <time>2021-09-26T14:09:22Z</time>
      </trkpt>
      <trkpt lat="43.63664" lon="3.80868">
        <ele>56.1</ele>
        <time>2021-09-26T14:09:32Z</time>
      </trkpt>
      <trkpt lat="43.63633" lon="3.80873">
        <ele>58.7</ele>
        <time>2021-09-26T14:09:42Z</time>
      </trkpt>
      <trkpt lat="43.63598" lon="3.80861">
        <ele>59.2</ele>
        <time>2021-09-26T14:09:52Z</time>
      </trkpt>
      <trkpt lat="43.63567" lon="3.80832">
        <ele>55.7</ele>
        <time>2021-09-26T14:10:02Z</time>
      </trkpt>
      <trkpt lat="43.63532" lon="3.80795">
        <ele>54.5</ele>
        <time>2021-09-26T14:10:12Z</time>
      </trkpt>
      <trkpt lat="43.63503" lon="3.80777">
        <ele>53.5</ele>
        <time>2021-09-26T14:10:22Z</time>
      </trkpt>
      <trkpt lat="43.63467" lon="3.80783">
        <ele>53.1</ele>
        <time>2021-09-26T14:10:32Z</time>
      </trkpt>
      <trkpt lat="43.63453" lon="3.80832">
        <ele>55</ele>
        <time>2021-09-26T14:10:42Z</time>
      </trkpt>
      <trkpt lat="43.63446" lon="3.80895">
        <ele>57</ele>
        <time>2021-09-26T14:10:52Z</time>
      </trkpt>
      <trkpt lat="43.63445" lon="3.80951">
        <ele>57.8</ele>
        <time>2021-09-26T14:11:02Z</time>
      </trkpt>
      <trkpt lat="43.63447" lon="3.81008">
        <ele>58.1</ele>
        <time>2021-09-26T14:11:12Z</time>
      </trkpt>
      <trkpt lat="43.63455" lon="3.81086">
        <ele>59.3</ele>
        <time>2021-09-26T14:11:22Z</time>
      </trkpt>
      <trkpt lat="43.6346" lon="3.81154">
        <ele>62.1</ele>
        <time>2021-09-26T14:11:32Z</time>
      </trkpt>
      <trkpt lat="43.63462" lon="3.81214">
        <ele>64.2</ele>
        <time>2021-09-26T14:11:42Z</time>
      </trkpt>
      <trkpt lat="43.63459" lon="3.8126">
        <ele>64.7</ele>
        <time>2021-09-26T14:11:52Z</time>
      </trkpt>
      <trkpt lat="43.63444" lon="3.81313">
        <ele>62.6</ele>
        <time>2021-09-26T14:12:02Z</time>
      </trkpt>
      <trkpt lat="43.63409" lon="3.81353">
        <ele>55.9</ele>
        <time>2021-09-26T14:12:12Z</time>
      </trkpt>
      <trkpt lat="43.63368" lon="3.81383">
        <ele>54.2</ele>
        <time>2021-09-26T14:12:22Z</time>
      </trkpt>
      <trkpt lat="43.63332" lon="3.81422">
        <ele>51.2</ele>
        <time>2021-09-26T14:12:32Z</time>
      </trkpt>
      <trkpt lat="43.63309" lon="3.81452">
        <ele>51.9</ele>
        <time>2021-09-26T14:12:42Z</time>
      </trkpt>
      <trkpt lat="43.63288" lon="3.81483">
        <ele>50.5</ele>
        <time>2021-09-26T14:12:52Z</time>
      </trkpt>
      <trkpt lat="43.63258" lon="3.81521">
        <ele>49.4</ele>
        <time>2021-09-26T14:13:02Z</time>
      </trkpt>
      <trkpt lat="43.63224" lon="3.8156">
        <ele>51.1</ele>
        <time>2021-09-26T14:13:12Z</time>
      </trkpt>
      <trkpt lat="43.63189" lon="3.81606">
        <ele>54.4</ele>
        <time>2021-09-26T14:13:22Z</time>
      </trkpt>
      <trkpt lat="43.63143" lon="3.81638">
        <ele>54.8</ele>
        <time>2021-09-26T14:13:32Z</time>
      </trkpt>
      <trkpt lat="43.63108" lon="3.81648">
        <ele>52.9</ele>
        <time>2021-09-26T14:13:42Z</time>
      </trkpt>
      <trkpt lat="43.63085" lon="3.81653">
        <ele>51.3</ele>
        <time>2021-09-26T14:13:52Z</time>
      </trkpt>
      <trkpt lat="43.63035" lon="3.8164">
        <ele>50</ele>
        <time>2021-09-26T14:14:02Z</time>
      </trkpt>
      <trkpt lat="43.62984" lon="3.81648">
        <ele>49.9</ele>
        <time>2021-09-26T14:14:12Z</time>
      </trkpt>
      <trkpt lat="43.62936" lon="3.8163">
        <ele>47</ele>
        <time>2021-09-26T14:14:22Z</time>
      </trkpt>
      <trkpt lat="43.62909" lon="3.81646">
        <ele>47.5</ele>
        <time>2021-09-26T14:14:32Z</time>
      </trkpt>
      <trkpt lat="43.62905" lon="3.81675">
        <ele>49</ele>
        <time>2021-09-26T14:14:42Z</time>
      </trkpt>
      <trkpt lat="43.62904" lon="3.81698">
        <ele>49.8</ele>
        <time>2021-09-26T14:14:52Z</time>
      </trkpt>
      <trkpt lat="43.62906" lon="3.81722">
        <ele>50.7</ele>
        <time>2021-09-26T14:15:02Z</time>
      </trkpt>
      <trkpt lat="43.62914" lon="3.8174">
        <ele>51.5</ele>
        <time>2021-09-26T14:15:12Z</time>
      </trkpt>
      <trkpt lat="43.62927" lon="3.8175">
        <ele>52.6</ele>
        <time>2021-09-26T14:15:22Z</time>
      </trkpt>
      <trkpt lat="43.62941" lon="3.81763">
        <ele>54.1</ele>
        <time>2021-09-26T14:15:32Z</time>
      </trkpt>
      <trkpt lat="43.62957" lon="3.81776">
        <ele>55.7</ele>
        <time>2021-09-26T14:15:42Z</time>
      </trkpt>
      <trkpt lat="43.62975" lon="3.8179">
        <ele>57.2</ele>
        <time>2021-09-26T14:15:52Z</time>
      </trkpt>
      <trkpt lat="43.62986" lon="3.81802">
        <ele>58.2</ele>
        <time>2021-09-26T14:16:02Z</time>
      </trkpt>
      <trkpt lat="43.63" lon="3.81815">
        <ele>59.3</ele>
        <time>2021-09-26T14:16:12Z</time>
      </trkpt>
      <trkpt lat="43.63018" lon="3.81834">
        <ele>59.8</ele>
        <time>2021-09-26T14:16:22Z</time>
      </trkpt>
      <trkpt lat="43.63041" lon="3.81854">
        <ele>59.3</ele>
        <time>2021-09-26T14:16:32Z</time>
      </trkpt>
      <trkpt lat="43.6306" lon="3.81882">
        <ele>58.7</ele>
        <time>2021-09-26T14:16:42Z</time>
      </trkpt>
      <trkpt lat="43.6307" lon="3.81921">
        <ele>58.2</ele>
        <time>2021-09-26T14:16:52Z</time>
      </trkpt>
      <trkpt lat="43.63068" lon="3.81971">
        <ele>58.5</ele>
        <time>2021-09-26T14:17:02Z</time>
      </trkpt>
      <trkpt lat="43.63068" lon="3.82027">
        <ele>57.3</ele>
        <time>2021-09-26T14:17:12Z</time>
      </trkpt>
      <trkpt lat="43.63067" lon="3.82081">
        <ele>54.7</ele>
        <time>2021-09-26T14:17:22Z</time>
      </trkpt>
      <trkpt lat="43.63066" lon="3.82131">
        <ele>54.9</ele>
        <time>2021-09-26T14:17:32Z</time>
      </trkpt>
      <trkpt lat="43.63064" lon="3.82182">
        <ele>54.9</ele>
        <time>2021-09-26T14:17:42Z</time>
      </trkpt>
      <trkpt lat="43.63063" lon="3.82231">
        <ele>54.4</ele>
        <time>2021-09-26T14:17:52Z</time>
      </trkpt>
      <trkpt lat="43.63062" lon="3.82283">
        <ele>54.5</ele>
        <time>2021-09-26T14:18:02Z</time>
      </trkpt>
      <trkpt lat="43.63059" lon="3.82339">
        <ele>55</ele>
        <time>2021-09-26T14:18:12Z</time>
      </trkpt>
      <trkpt lat="43.63058" lon="3.82394">
        <ele>56.5</ele>
        <time>2021-09-26T14:18:22Z</time>
      </trkpt>
      <trkpt lat="43.63055" lon="3.82449">
        <ele>57.2</ele>
        <time>2021-09-26T14:18:32Z</time>
      </trkpt>
      <trkpt lat="43.63042" lon="3.82508">
        <ele>57</ele>
        <time>2021-09-26T14:18:42Z</time>
      </trkpt>
      <trkpt lat="43.63038" lon="3.82566">
        <ele>56.8</ele>
        <time>2021-09-26T14:18:52Z</time>
      </trkpt>
      <trkpt lat="43.63039" lon="3.82606">
        <ele>57.7</ele>
        <time>2021-09-26T14:19:02Z</time>
      </trkpt>
      <trkpt lat="43.6303" lon="3.82631">
        <ele>58.2</ele>
        <time>2021-09-26T14:19:12Z</time>
      </trkpt>
      <trkpt lat="43.63006" lon="3.82643">
        <ele>57.4</ele>
        <time>2021-09-26T14:19:22Z</time>
      </trkpt>
      <trkpt lat="43.62984" lon="3.82671">
        <ele>57.7</ele>
        <time>2021-09-26T14:19:32Z</time>
      </trkpt>
      <trkpt lat="43.62961" lon="3.827">
        <ele>58.8</ele>
        <time>2021-09-26T14:19:42Z</time>
      </trkpt>
      <trkpt lat="43.62935" lon="3.82719">
        <ele>59.3</ele>
        <time>2021-09-26T14:19:52Z</time>
      </trkpt>
      <trkpt lat="43.62914" lon="3.82745">
        <ele>60.5</ele>
        <time>2021-09-26T14:20:02Z</time>
      </trkpt>
      <trkpt lat="43.62902" lon="3.8277">
        <ele>61.8</ele>
        <time>2021-09-26T14:20:12Z</time>
      </trkpt>
      <trkpt lat="43.62896" lon="3.82811">
        <ele>64.3</ele>
        <time>2021-09-26T14:20:22Z</time>
      </trkpt>
      <trkpt lat="43.62872" lon="3.82815">
        <ele>64.1</ele>
        <time>2021-09-26T14:20:32Z</time>
      </trkpt>
      <trkpt lat="43.62853" lon="3.8282">
        <ele>64.2</ele>
        <time>2021-09-26T14:20:42Z</time>
      </trkpt>
      <trkpt lat="43.62849" lon="3.82846">
        <ele>65.8</ele>
        <time>2021-09-26T14:20:52Z</time>
      </trkpt>
      <trkpt lat="43.62845" lon="3.82866">
        <ele>66.8</ele>
        <time>2021-09-26T14:21:02Z</time>
      </trkpt>
      <trkpt lat="43.62841" lon="3.82888">
        <ele>67.8</ele>
        <time>2021-09-26T14:21:12Z</time>
      </trkpt>
      <trkpt lat="43.62837" lon="3.82911">
        <ele>68.8</ele>
        <time>2021-09-26T14:21:22Z</time>
      </trkpt>
      <trkpt lat="43.62833" lon="3.82935">
        <ele>70.5</ele>
        <time>2021-09-26T14:21:32Z</time>
      </trkpt>
      <trkpt lat="43.62832" lon="3.82955">
        <ele>72.2</ele>
        <time>2021-09-26T14:21:42Z</time>
      </trkpt>
      <trkpt lat="43.62832" lon="3.82972">
        <ele>73.7</ele>
        <time>2021-09-26T14:21:52Z</time>
      </trkpt>
      <trkpt lat="43.62837" lon="3.82991">
        <ele>75.2</ele>
        <time>2021-09-26T14:22:02Z</time>
      </trkpt>
      <trkpt lat="43.62835" lon="3.8301">
        <ele>76.7</ele>
        <time>2021-09-26T14:22:12Z</time>
      </trkpt>
      <trkpt lat="43.62836" lon="3.83028">
        <ele>78</ele>
        <time>2021-09-26T14:22:22Z</time>
      </trkpt>
      <trkpt lat="43.62839" lon="3.83045">
        <ele>79.1</ele>
        <time>2021-09-26T14:22:32Z</time>
      </trkpt>
      <trkpt lat="43.62843" lon="3.83062">
        <ele>80.1</ele>
        <time>2021-09-26T14:22:42Z</time>
      </trkpt>
      <trkpt lat="43.62841" lon="3.83081">
        <ele>81.5</ele>
        <time>2021-09-26T14:22:52Z</time>
      </trkpt>
      <trkpt lat="43.62832" lon="3.83086">
        <ele>82</ele>
        <time>2021-09-26T14:23:02Z</time>
      </trkpt>
      <trkpt lat="43.62816" lon="3.83088">
        <ele>82.2</ele>
        <time>2021-09-26T14:23:12Z</time>
      </trkpt>
      <trkpt lat="43.62798" lon="3.83094">
        <ele>82.5</ele>
        <time>2021-09-26T14:23:22Z</time>
      </trkpt>
      <trkpt lat="43.6278" lon="3.83096">
        <ele>82.7</ele>
        <time>2021-09-26T14:23:32Z</time>
      </trkpt>
      <trkpt lat="43.62766" lon="3.83098">
        <ele>83</ele>
        <time>2021-09-26T14:23:42Z</time>
      </trkpt>
      <trkpt lat="43.62752" lon="3.83103">
        <ele>83.2</ele>
        <time>2021-09-26T14:23:52Z</time>
      </trkpt>
      <trkpt lat="43.62735" lon="3.83111">
        <ele>82.7</ele>
        <time>2021-09-26T14:24:02Z</time>
      </trkpt>
      <trkpt lat="43.62706" lon="3.83127">
        <ele>81.7</ele>
        <time>2021-09-26T14:24:12Z</time>
      </trkpt>
      <trkpt lat="43.62669" lon="3.83158">
        <ele>80.9</ele>
        <time>2021-09-26T14:24:22Z</time>
      </trkpt>
      <trkpt lat="43.62631" lon="3.83196">
        <ele>79.5</ele>
        <time>2021-09-26T14:24:32Z</time>
      </trkpt>
      <trkpt lat="43.62588" lon="3.83239">
        <ele>78.1</ele>
        <time>2021-09-26T14:24:42Z</time>
      </trkpt>
      <trkpt lat="43.62555" lon="3.83296">
        <ele>76.4</ele>
        <time>2021-09-26T14:24:52Z</time>
      </trkpt>
      <trkpt lat="43.62529" lon="3.83358">
        <ele>76.3</ele>
        <time>2021-09-26T14:25:02Z</time>
      </trkpt>
      <trkpt lat="43.62509" lon="3.83423">
        <ele>76.9</ele>
        <time>2021-09-26T14:25:12Z</time>
      </trkpt>
      <trkpt lat="43.62478" lon="3.83428">
        <ele>75.1</ele>
        <time>2021-09-26T14:30:02Z</time>
      </trkpt>
      <trkpt lat="43.62449" lon="3.83416">
        <ele>73.9</ele>
        <time>2021-09-26T14:30:22Z</time>
      </trkpt>
      <trkpt lat="43.62426" lon="3.83445">
        <ele>72.1</ele>
        <time>2021-09-26T14:30:32Z</time>
      </trkpt>
      <trkpt lat="43.62397" lon="3.8345">
        <ele>71.6</ele>
        <time>2021-09-26T14:30:42Z</time>
      </trkpt>
      <trkpt lat="43.6236" lon="3.83437">
        <ele>71.4</ele>
        <time>2021-09-26T14:30:52Z</time>
      </trkpt>
      <trkpt lat="43.6232" lon="3.83449">
        <ele>71.8</ele>
        <time>2021-09-26T14:31:02Z</time>
      </trkpt>
      <trkpt lat="43.62294" lon="3.83487">
        <ele>72.9</ele>
        <time>2021-09-26T14:31:12Z</time>
      </trkpt>
      <trkpt lat="43.62275" lon="3.83525">
        <ele>74.2</ele>
        <time>2021-09-26T14:31:22Z</time>
      </trkpt>
      <trkpt lat="43.62259" lon="3.83517">
        <ele>74.4</ele>
        <time>2021-09-26T14:31:32Z</time>
      </trkpt>
      <trkpt lat="43.62244" lon="3.83508">
        <ele>74.7</ele>
        <time>2021-09-26T14:31:42Z</time>
      </trkpt>
      <trkpt lat="43.62213" lon="3.8349">
        <ele>76.6</ele>
        <time>2021-09-26T14:31:52Z</time>
      </trkpt>
      <trkpt lat="43.62175" lon="3.83448">
        <ele>78.8</ele>
        <time>2021-09-26T14:32:02Z</time>
      </trkpt>
      <trkpt lat="43.62132" lon="3.83417">
        <ele>78.2</ele>
        <time>2021-09-26T14:32:12Z</time>
      </trkpt>
      <trkpt lat="43.62091" lon="3.83371">
        <ele>77.6</ele>
        <time>2021-09-26T14:32:22Z</time>
      </trkpt>
      <trkpt lat="43.6205" lon="3.83323">
        <ele>77.2</ele>
        <time>2021-09-26T14:32:32Z</time>
      </trkpt>
      <trkpt lat="43.6201" lon="3.83273">
        <ele>76.9</ele>
        <time>2021-09-26T14:32:42Z</time>
      </trkpt>
      <trkpt lat="43.61974" lon="3.83256">
        <ele>76.6</ele>
        <time>2021-09-26T14:32:52Z</time>
      </trkpt>
      <trkpt lat="43.61929" lon="3.83249">
        <ele>76.1</ele>
        <time>2021-09-26T14:33:02Z</time>
      </trkpt>
      <trkpt lat="43.6188" lon="3.83223">
        <ele>74.7</ele>
        <time>2021-09-26T14:33:12Z</time>
      </trkpt>
      <trkpt lat="43.61836" lon="3.83195">
        <ele>73.7</ele>
        <time>2021-09-26T14:33:22Z</time>
      </trkpt>
      <trkpt lat="43.61791" lon="3.83168">
        <ele>75</ele>
        <time>2021-09-26T14:33:32Z</time>
      </trkpt>
      <trkpt lat="43.61744" lon="3.83136">
        <ele>75.7</ele>
        <time>2021-09-26T14:33:42Z</time>
      </trkpt>
      <trkpt lat="43.61694" lon="3.83098">
        <ele>73.5</ele>
        <time>2021-09-26T14:33:52Z</time>
      </trkpt>
      <trkpt lat="43.61648" lon="3.83054">
        <ele>73.3</ele>
        <time>2021-09-26T14:34:02Z</time>
      </trkpt>
      <trkpt lat="43.61601" lon="3.83017">
        <ele>71.6</ele>
        <time>2021-09-26T14:34:12Z</time>
      </trkpt>
      <trkpt lat="43.61553" lon="3.8298">
        <ele>68.6</ele>
        <time>2021-09-26T14:34:22Z</time>
      </trkpt>
      <trkpt lat="43.61504" lon="3.82941">
        <ele>67.1</ele>
        <time>2021-09-26T14:34:32Z</time>
      </trkpt>
      <trkpt lat="43.61465" lon="3.82914">
        <ele>66.1</ele>
        <time>2021-09-26T14:34:42Z</time>
      </trkpt>
      <trkpt lat="43.61459" lon="3.82877">
        <ele>65.5</ele>
        <time>2021-09-26T14:34:52Z</time>
      </trkpt>
    </trkseg>
  </trk>
</gpx>